This site, now in its 15th season, is a labour of love and fun from one of Ottawa's most avid time trialists and number crunchers. It adheres to and is permitted by the laws of Canada, promotes the objectives of every bicycle club whose results are shown, and is donated free of charge by myself for your enjoyment and usage. If you would like results from series you ride in to be shown here, give me (celia@drmath.ca) a shout!


Index Page
ATT OTT WTT AATT CFCTT VVVTT
Help resultformat:
Case-sensitive No Subgrp Avgs Show SubDate Info SubSortFields:
special event:
weather:
Case-sensitive Search across All Fields:
Case-sensitive Search across Subgrp:

Show best:
any distance7.5km,10km,10.89km,13.8km,14.91km,15km,
18.1km,20km,22km,38km,40km,80km,100km,
for: in Results. Subgrp Sort: show ties for subgrp slowest.
HANDICAPS:
None      2000-2001 age Method   2002 age Method    2003 age Method    age/gender method ("VTTA+")
Personal: Just club, Standard time:, PB over this and the previous years, with at least earlier result(s) in this and the previous years on .

(Don't Show the following (Show all if none checked):
Name Club Date Series Distance Time AvgSpd EvtRank Category CatRank EvtFactor Performanceratio

Sort Buttons and Filters for Fields not Shown in Results
 
 


BESTS? EF
 
 OTT 1992-Apr-17 - 15km (Rockliffe Pkwy) (EvtFactor: 0.7569)

Weather (11:00): Cloudy. Temp.: 2.2C, Humidity: 93%, DewPoint: 1.3C, Wind: ENE 20km/h, Pressure: 100.20kPa, Visibility: 12.9km.
Weather (12:00): Cloudy. Temp.: 2.7C, Humidity: 90%, DewPoint: 1.3C, Wind: ENE 20km/h, Pressure: 100.24kPa, Visibility: 24.1km.
Weather (13:00): Cloudy. Temp.: 3.2C, Humidity: 86%, DewPoint: 1.1C, Wind: NE 20km/h, Pressure: 100.24kPa, Visibility: 24.1km.
1 1 Hellard, Rick 1992-Apr-17 23:25 38.434 1/47 OSEM 1/26 0.8293
2 Plaunt, Grahame 1992-Apr-17 23:27 38.380 2/47 OSEM 2/26 0.8562
3 Krausbar, Gunther 1992-Apr-17 23:42 37.975 3/47 OSEM 3/26 1.0000
4 Roy, Eric 1992-Apr-17 23:46 37.868 4/47 OSEM 4/26 0.7629
5 Burge, Craig  1992-Apr-17 23:47 37.842 5/47 OSEM 5/26 0.8337
6 Daniels, Stephen 1992-Apr-17 23:48 37.815 6/47 OSEM 6/26 1.0000
7 Serviss, Terry 1992-Apr-17 24:03 37.422 7/47 OSEM 7/26 0.8727
8 Ashcroft, Mike 1992-Apr-17 24:07 37.319 8/47 OSEM 8/26 0.7978
9 Phillips, Ron 1992-Apr-17 24:09 37.267 9/47 OVBM 1/4 1.0000
10 Kemball, Colin 1992-Apr-17 24:12 37.190 10/47 OSEM 9/26 1.0000
11 Hinz, Richard 1992-Apr-17 24:25 36.860 11/47 OVAM 1/3 0.7773
12 Tremblay, Francis 1992-Apr-17 24:38 36.536 12/47 OSEM 10/26 1.0000
13 Lalonde, Mike 1992-Apr-17 24:40 36.486 13/47 OSEM 11/26 1.0000
14 Manning, Derek 1992-Apr-17 24:41 36.462 14/47 OSEM 12/26 0.9581
15 Buffa, Alex  1992-Apr-17 25:05 35.880 15/47 OSEM 13/26 0.7981
16 Moerman, Bram  1992-Apr-17 25:19 35.550 16/47 OVBM 2/4 0.6942
17 Fraser, Ian B. 1992-Apr-17 25:23 35.456 17/47 OVBM 3/4 1.0000
18 Moore, Mike 1992-Apr-17 25:25 35.410 18/47 OSEM 14/26 1.0000
19 Ford, Allen 1992-Apr-17 25:33 35.225 19/47 OSEM 15/26 0.7914
20 Campbell, Colin  1992-Apr-17 25:38 35.111 20/47 OSEM 16/26 0.7303
21 St-Amour, Pierre 1992-Apr-17 25:56 34.704 22/47 OVAM 2/3 0.7006
22 Schultz, Jay 1992-Apr-17 26:11 34.373 23/47 OSEM 17/26 0.7701
23 Bauermeister, Senta 1992-Apr-17 26:12 34.351 24/47 OSEF 1/3 1.0000
24 Leroux, Paul 1992-Apr-17 26:20 34.177 25/47 OSEM 18/26 0.7586
25 Brady, David 1992-Apr-17 26:23 34.112 26/47 OSEM 19/26 1.0000
26 Gamache, Stephane 1992-Apr-17 26:34 33.877 27/47 OJUM 1/2 0.7512
27 Cooper, Michael 1992-Apr-17 26:42 33.708 28/47 OSEM 20/26 1.0000
28 Budd, Daniel 1992-Apr-17 26:57 33.395 29/47 OSEM 21/26 0.7092
29 Pazdzior, Ellen  1992-Apr-17 27:05 33.231 30/47 OVAF 1/3 1.0000
30 Leblanc, Todd 1992-Apr-17 27:18 32.967 31/47 OSEM 22/26 0.7257
31 Allen, Brent 1992-Apr-17 28:13 31.896 33/47 OSEM 23/26 0.7600
32 Ménard, Monique 1992-Apr-17 28:27 31.634 34/47 OSEF 2/3 0.7530
33 Dueck, Jon 1992-Apr-17 28:47 31.268 35/47 OSEM 24/26 0.7132
34 McInnis, Celia  1992-Apr-17 28:52 31.178 36/47 OVAF 2/3 0.7477
35 Hiscocks, Mark & Hiscocks, Roger 1992-Apr-17 28:59 31.052 37/47 TTT 1/1 1.0000
36 Rajczi, Louis 1992-Apr-17 30:26 29.573 38/47 OSEM 25/26 1.0000
37 Moquin, Bruce 1992-Apr-17 30:33 29.460 39/47 OJUM 2/2 0.6614
s 38 Gray, Leona  1992-Apr-17 30:56 29.095 40/47 OVBF 1/1 1.0000
39 Hope, Walter 1992-Apr-17 31:17 28.769 41/47 OVAM 3/3 0.7575
s 40 Murray, Julie 1992-Apr-17 32:35 27.621 42/47 OJUF 1/1 1.0000
41 Montserrat, Fabienne 1992-Apr-17 32:46 27.467 43/47 OVAF 3/3 0.6063
42 Rajczi, Karen 1992-Apr-17 33:44 26.680 44/47 OSEF 3/3 1.0000
43 Chen, Jonathan 1992-Apr-17 33:51 26.588 45/47 OCAM 1/1 1.0000
44 Pstross, Nick 1992-Apr-17 34:49 25.850 46/47 OVBM 4/4 0.7036
45 Wannamaker, Kyle 1992-Apr-17 41:02 21.933 47/47 OSEM 26/26 1.0000
Average Speed of the above 45 finishes (675km in 20:30:08):32.923
>>>Average of the Average Speeds for these 45 finishes33.454<<<
Standard Deviation of the Average Speeds for these 45 finishes3.948
Average of the Performance Ratios for the 45 rated finishes0.8627
Standard Deviation of the Performance Ratios for the 45 rated finishes0.1289
 
 OTT 1993-Apr-09 - 15km (Rockliffe Pkwy) (EvtFactor: 0.69)

Ottawa Weather (11:00): Cloudy. Temp.: 9.2°C, Humidity: 50%, DewPoint: -0.7°C, Wind: E 11km/h, Pressure: 99.77kPa, Visibility: 24.1km.
Ottawa Weather (12:00): Cloudy. Temp.: 11.6°C, Humidity: 49%, DewPoint: 1.2°C, Wind: ESE 6km/h, Pressure: 99.77kPa, Visibility: 24.1km.
Ottawa Weather (13:00): Mostly Cloudy. Temp.: 15.2°C, Humidity: 39%, DewPoint: 1.4°C, Wind: S 11km/h, Pressure: 99.74kPa, Visibility: 24.1km.
2 1 Large, John 1993-Apr-09 21:46 41.348 1/63 OSEM 1/24 0.7527
2 Cowan, Norman  1993-Apr-09 22:03 40.816 2/63 OVAM 1/12 0.7688
3 Krausbar, Gunther 1993-Apr-09 22:52 39.359 3/63 OSEM 2/24 0.8665
4 St-Amour, Pierre 1993-Apr-09 22:52 39.359 3/63 OVAM 2/12 0.7764
5 Fraser, Ian 1993-Apr-09 23:08 38.905 5/63 OSEM 3/24 0.6908
6 Moerman, Bram  1993-Apr-09 23:14 38.737 6/63 OVBM 1/11 0.7544
7 Hinz, Richard 1993-Apr-09 23:26 38.407 7/63 OVAM 3/12 0.7796
8 McHugh, Craig 1993-Apr-09 23:27 38.380 8/63 OSEM 4/24 0.8932
9 Schuck, Peter  1993-Apr-09 23:30 38.298 9/63 OVAM 4/12 0.8583
10 Daniels, Stephen 1993-Apr-09 23:35 38.163 10/63 OSEM 5/24 1.0000
11 Roy, Louis 1993-Apr-09 23:36 38.136 11/63 OSEM 6/24 1.0000
12 Burge, Craig  1993-Apr-09 23:46 37.868 12/63 OSEM 7/24 0.6155
13 Bisson, Pascal 1993-Apr-09 24:01 37.474 13/63 OSEM 8/24 0.7444
14 Bachman, Paul 1993-Apr-09 24:07 37.319 14/63 OSEM 9/24 0.6172
15 Hamilton, Peter 1993-Apr-09 24:09 37.267 15/63 OSEM 10/24 0.7440
16 Phillips, Ron 1993-Apr-09 24:09 37.267 15/63 OVBM 2/11 0.7440
17 Thompson, Grant 1993-Apr-09 24:12 37.190 17/63 XXM 1/4 0.7702
18 Bloom, D'Arcy 1993-Apr-09 24:22 36.936 18/63 OSEM 11/24 0.9221
19 Roy, Marc 1993-Apr-09 24:25 36.860 19/63 OSEM 12/24 0.7983
20 Higgins, Bryan 1993-Apr-09 24:30 36.735 20/63 OSEM 13/24 0.8676
21 Bachman, Mike 1993-Apr-09 24:46 36.339 21/63 OVBM 3/11 0.7366
22 Campbell, Colin  1993-Apr-09 24:50 36.242 22/63 OSEM 14/24 0.7638
23 Pazdzior, Ellen  1993-Apr-09 24:54 36.145 23/63 OVAF 1/2 0.7183
24 Beasley, Graham 1993-Apr-09 24:58 36.048 24/63 OVBM 4/11 0.7384
25 d'Arras, Robert 1993-Apr-09 25:07 35.833 25/63 OVAM 5/12 0.7109
26 McCoy, Robert 1993-Apr-09 25:15 35.644 26/63 OJUM 1/3 0.8969
27 Martignago, Mike 1993-Apr-09 25:16 35.620 27/63 OSEM 15/24 0.6005
28 Smallwood, Steve 1993-Apr-09 25:21 35.503 28/63 OVAM 6/12 0.7292
29 Quesnel, Guy 1993-Apr-09 25:40 35.065 29/63 OSEM 16/24 0.8644
30 Deslauriers, Dan 1993-Apr-09 25:43 34.997 30/63 OSEM 17/24 1.0000
31 Hicks, Bob  1993-Apr-09 25:47 34.906 31/63 OVBM 5/11 0.6870
32 MacDonald, Ryan 1993-Apr-09 25:50 34.839 32/63 OSEM 18/24 0.5462
33 Barton, Ron 1993-Apr-09 25:58 34.660 33/63 OVAM 7/12 0.6964
34 DeVidi, Robert  1993-Apr-09 25:59 34.638 34/63 OSEM 19/24 0.8539
35 Payette, Erin 1993-Apr-09 26:04 34.527 35/63 OSEF 1/3 0.8543
36 Vasku, Herb 1993-Apr-09 26:14 34.307 36/63 OVBM 6/11 0.8449
37 Simpson, Bob 1993-Apr-09 26:23 34.112 37/63 OVBM 7/11 0.4566
38 Ménard, Monique 1993-Apr-09 26:35 33.856 38/63 OSEF 2/3 0.6421
39 Waterhouse, Ken 1993-Apr-09 26:39 33.771 39/63 XXM 2/4 1.0000
40 Budd, Daniel 1993-Apr-09 26:42 33.708 40/63 OSEM 20/24 0.5544
41 Bryson, Alex 1993-Apr-09 26:52 33.499 41/63 XXM 3/4 0.7293
42 McInnis, Celia  1993-Apr-09 26:54 33.457 42/63 OVAF 2/2 0.7726
43 Arts, Michael 1993-Apr-09 27:12 33.088 43/63 OCAM 1/1 0.5113
44 Austen, Ian  1993-Apr-09 27:16 33.007 44/63 OVAM 8/12 0.6015
45 Waterhouse, Tricia 1993-Apr-09 27:19 32.947 45/63 OSEF 3/3 1.0000
Y 46 Quesnel, Nicola 1993-Apr-09 27:24 32.847 46/63 OJUF 1/1 1.0000
47 Somogyi, Michel 1993-Apr-09 27:25 32.827 47/63 OJUM 2/3 0.6820
48 Janusauskas, Vytas  1993-Apr-09 27:27 32.787 48/63 OVAM 9/12 1.0000
49 Le Grand, Gregory 1993-Apr-09 27:59 32.162 49/63 OVBM 8/11 0.5468
50 Bowring, John 1993-Apr-09 28:31 31.560 50/63 OJUM 3/3 0.5247
51 Hope, Walter 1993-Apr-09 28:35 31.487 51/63 OVAM 10/12 0.6132
52 Robertson, Scott 1993-Apr-09 28:36 31.469 52/63 OSEM 21/24 1.0000
53 Ajersch, Mary  1993-Apr-09 28:41 31.377 53/63 OVBF 1/2 0.6412
54 Woods, Bob  1993-Apr-09 28:56 31.106 54/63 OVAM 11/12 0.7228
55 Paitich, Daniel 1993-Apr-09 29:20 30.682 55/63 OVAM 12/12 0.7112
56 Chen, Jonathan 1993-Apr-09 29:39 30.354 56/63 OSEM 22/24 0.4160
57 Sabourin, Jean-Paul 1993-Apr-09 29:42 30.303 57/63 OVBM 9/11 1.0000
58 Olsen, Mike 1993-Apr-09 30:11 29.818 58/63 OVBM 10/11 1.0000
59 Wong, Patrick 1993-Apr-09 30:16 29.736 59/63 OSEM 23/24 1.0000
60 Gray, Leona  1993-Apr-09 30:47 29.237 60/63 OVBF 2/2 1.0000
61 Labelle, Denis 1993-Apr-09 32:26 27.749 61/63 XXM 4/4 0.5812
62 Rochon, Francois 1993-Apr-09 32:26 27.749 61/63 OSEM 24/24 0.7347
63 Pstross, Nick 1993-Apr-09 35:10 25.592 63/63 OVBM 11/11 0.6577
Average Speed of the above 63 finishes (945km in 27:34:15):34.275
>>>Average of the Average Speeds for these 63 finishes34.610<<<
Standard Deviation of the Average Speeds for these 63 finishes3.314
Average of the Performance Ratios for the 63 rated finishes0.7667
Standard Deviation of the Performance Ratios for the 63 rated finishes0.1543
 
 OTT 1994-Apr-01 - 15km (Rockliffe Pkwy) (EvtFactor: 0.6246)

Weather (11:00): Snow. Temp.: -2.3C, Humidity: 87%, DewPoint: -4.1C, Wind: NE 9km/h, Pressure: 100.19kPa, Visibility: 2.0km.
Weather (12:00): Snow. Temp.: -2.3C, Humidity: 87%, DewPoint: -4.2C, Wind: ENE 7km/h, Pressure: 100.23kPa, Visibility: 1.2km.
Weather (13:00): Snow. Temp.: -1.5C, Humidity: 85%, DewPoint: -3.7C, Wind: E 6km/h, Pressure: 100.23kPa, Visibility: 6.4km.
3 1 Krausbar, Gunther 1994-Apr-01 23:04 39.017 1/33 OSEM 1/10 0.7948
2 McCloskey, Michael 1994-Apr-01 23:42 37.975 2/33 XXM 1/5 1.0000
3 Hinz, Richard 1994-Apr-01 24:02 37.448 3/33 OVAM 1/5 0.6592
4 St-Amour, Pierre 1994-Apr-01 24:07 37.319 4/33 OVAM 2/5 0.6714
5 Ferguson, James 1994-Apr-01 24:22 36.936 5/33 OSEM 2/10 0.6524
6 Phillips, Ron 1994-Apr-01 24:47 36.315 6/33 OVBM 1/3 1.0000
7 Harris, Glenn 1994-Apr-01 24:55 36.120 7/33 OJUM 1/4 0.6159
8 d'Arras, Robert 1994-Apr-01 25:13 35.691 8/33 OVAM 3/5 1.0000
9 Moore, Mike 1994-Apr-01 25:13 35.691 8/33 OSEM 3/10 0.8532
10 MacMillan, Trevor 1994-Apr-01 25:18 35.573 10/33 OSEM 4/10 0.7003
11 Campbell, Colin  1994-Apr-01 25:22 35.480 11/33 OSEM 5/10 0.5742
12 Hartry, Corey 1994-Apr-01 25:26 35.387 12/33 OJUM 2/4 0.7689
13 Bachman, Paul 1994-Apr-01 25:46 34.929 13/33 OSEM 6/10 0.5110
14 Stewart, Ian 1994-Apr-01 25:49 34.861 14/33 OVAM 4/5 0.6174
15 Thompson, Grant 1994-Apr-01 25:53 34.771 15/33 XXM 2/5 0.7500
16 Archambault, Marc 1994-Apr-01 25:59 34.638 16/33 OSEM 7/10 0.5587
17 Baptiste, Joanne 1994-Apr-01 26:46 33.624 17/33 XXF 1/1 1.0000
18 Somogyi, Michel 1994-Apr-01 27:14 33.048 18/33 OJUM 3/4 0.6210
19 Bachman, Mike 1994-Apr-01 27:52 32.297 20/33 OVCM 1/1 0.5299
20 Clarke, David 1994-Apr-01 28:02 32.105 21/33 U18M 1/1 0.5102
21 Leach, Mike 1994-Apr-01 28:11 31.934 22/33 OSEM 8/10 0.4789
22 Bryson, Alex 1994-Apr-01 28:12 31.915 23/33 XXM 3/5 1.0000
23 Hamm, Junior 1994-Apr-01 28:12 31.915 23/33 OSEM 9/10 0.5556
24 Fransham, Richard 1994-Apr-01 28:36 31.469 25/33 OVBM 2/3 0.5167
25 Mitchell, Brent 1994-Apr-01 29:10 30.857 26/33 XXM 4/5 1.0000
26 Callum, John 1994-Apr-01 29:32 30.474 27/33 OJUM 4/4 0.5744
27 Green, Richard 1994-Apr-01 29:47 30.218 28/33 OVBM 3/3 0.6338
28 Janusauskas, Vytas  1994-Apr-01 30:04 29.933 29/33 OVAM 5/5 1.0000
29 Bourgeault, Rick 1994-Apr-01 30:15 29.752 30/33 OSEM 10/10 1.0000
30 McInnis, Celia  1994-Apr-01 31:17 28.769 31/33 OVAF 1/1 0.5012
31 Read, Derek 1994-Apr-01 31:58 28.154 32/33 XXM 5/5 1.0000
32 Green, Tristan 1994-Apr-01 33:26 26.919 33/33 OCAM 1/1 0.5444
Average Speed of the above 32 finishes (480km in 14:27:32):33.198
>>>Average of the Average Speeds for these 32 finishes33.485<<<
Standard Deviation of the Average Speeds for these 32 finishes3.055
Average of the Performance Ratios for the 32 rated finishes0.7248
Standard Deviation of the Performance Ratios for the 32 rated finishes0.1919
 
 OTT 1997-Mar-28 - 15km (Rockliffe Pkwy) (EvtFactor: 0.587)

Weather (11:00): Mostly Cloudy. Temp.: 4.5C, Humidity: 63%, DewPoint: -2.0C, Wind: ESE 9km/h, Pressure: 100.19kPa, Visibility: 32.2km.
Weather (12:00): Mostly Cloudy. Temp.: 5.4C, Humidity: 60%, DewPoint: -1.7C, Wind: ENE 11km/h, Pressure: 100.06kPa, Visibility: 32.2km.
Weather (13:00): Mostly Cloudy. Temp.: 6.5C, Humidity: 55%, DewPoint: -1.9C, Wind: E 13km/h, Pressure: 99.99kPa, Visibility: 32.2km.
4 1 Plaunt, Grahame 1997-Mar-28 21:08 42.587 1/54 SEM 1/10 0.7499
2 Burge, Craig  1997-Mar-28 23:06 38.961 2/54 VAM 1/16 1.0000
3 Campbell, Colin  1997-Mar-28 23:07 38.933 3/54 VAM 2/16 0.7180
4 Plaunt, Peter 1997-Mar-28 23:28 38.352 4/54 SEM 2/10 1.0000
5 Lambert, Jay 1997-Mar-28 23:46 37.868 5/54 SEM 3/10 1.0000
6 Mahon, Denis 1997-Mar-28 24:06 37.344 6/54 VAM 3/16 1.0000
7 Mahoney, Keith 1997-Mar-28 24:46 36.339 7/54 VAM 4/16 1.0000
8 Bundza, Nick 1997-Mar-28 24:47 36.315 8/54 VAM 5/16 1.0000
9 Smeaton, Drew 1997-Mar-28 25:05 35.880 9/54 VAM 6/16 0.5798
10 Dressler, Henry 1997-Mar-28 25:16 35.620 10/54 VAM 7/16 0.6844
11 Beasley, Graham 1997-Mar-28 25:20 35.526 11/54 VCM 1/9 0.7084
12 Bachman, Mike 1997-Mar-28 25:38 35.111 12/54 VCM 2/9 0.7162
13 Ellis, John 1997-Mar-28 25:49 34.861 13/54 SEM 4/10 1.0000
14 Asselstine, Michael 1997-Mar-28 25:51 34.816 14/54 SEM 5/10 1.0000
15 Basu, Ben  1997-Mar-28 25:51 34.816 14/54 SEM 5/10 0.6521
16 McKay, Shelley 1997-Mar-28 26:12 34.351 16/54 VAF 1/3 0.7170
17 Burdett, Avery  1997-Mar-28 26:18 34.221 17/54 VCM 3/9 0.6631
18 Budd, Daniel 1997-Mar-28 26:24 34.091 18/54 VAM 8/16 0.6274
19 Gilchrist, Ryan  1997-Mar-28 26:49 33.561 19/54 VAM 9/16 0.5920
20 Somogyi, Michel 1997-Mar-28 26:49 33.561 19/54 SEM 7/10 0.6350
21 Nelmes, John 1997-Mar-28 26:55 33.437 21/54 VAM 10/16 0.5362
22 Wennerwald, Henning 1997-Mar-28 27:09 33.149 22/54 VCM 4/9 0.7933
23 MacPhail, Gavin 1997-Mar-28 27:17 32.987 23/54 VAM 11/16 1.0000
24 Martin, David 1997-Mar-28 27:29 32.747 24/54 SEM 8/10 1.0000
25 Phillips, Ron 1997-Mar-28 27:29 32.747 24/54 VCM 5/9 1.0000
26 Atkinson, John 1997-Mar-28 27:33 32.668 26/54 VBM 1/10 0.5668
27 Crevier, Grégoire  1997-Mar-28 27:35 32.628 27/54 VAM 12/16 0.5039
28 Desjardins, André 1997-Mar-28 27:53 32.277 28/54 SEM 9/10 0.6377
29 Burn, Colin 1997-Mar-28 28:01 32.124 29/54 CAM 1/2 0.5401
30 Monette, Gary 1997-Mar-28 28:01 32.124 29/54 VBM 2/10 0.6131
31 Vasku, Herb 1997-Mar-28 28:20 31.765 31/54 VBM 3/10 1.0000
32 Janusauskas, Vytas  1997-Mar-28 28:26 31.653 32/54 VBM 4/10 0.6052
33 Hall, David  1997-Mar-28 28:34 31.505 33/54 VAM 13/16 0.6583
34 Simpson, Tait 1997-Mar-28 28:40 31.395 34/54 CAM 2/2 0.4228
35 Bilenkey, David 1997-Mar-28 28:45 31.304 35/54 VAM 14/16 0.4998
36 Sanderson, Bob 1997-Mar-28 28:54 31.142 36/54 VAM 15/16 1.0000
37 Young, Bruce 1997-Mar-28 28:54 31.142 36/54 VBM 5/10 1.0000
38 Balint, John 1997-Mar-28 28:57 31.088 38/54 VCM 6/9 0.6530
39 McInnis, Celia  1997-Mar-28 29:00 31.034 39/54 VBF 1/2 0.6204
40 Kelley, Todd 1997-Mar-28 29:01 31.017 40/54 VAM 16/16 1.0000
41 Barber, Graeme 1997-Mar-28 29:04 30.963 41/54 VCM 7/9 1.0000
42 Simpson, Bob 1997-Mar-28 29:21 30.664 42/54 VBM 6/10 0.3813
43 Roy, Kathy 1997-Mar-28 29:23 30.630 43/54 SEF 1/1 0.5869
44 Capling, Janet 1997-Mar-28 29:27 30.560 44/54 VBF 2/2 0.4469
45 Green, Richard 1997-Mar-28 29:37 30.388 45/54 VBM 7/10 1.0000
46 James, Peter 1997-Mar-28 29:43 30.286 46/54 VBM 8/10 0.5224
47 Munden, David 1997-Mar-28 29:43 30.286 46/54 SEM 10/10 0.3597
48 Reid, George 1997-Mar-28 30:41 29.332 48/54 VBM 9/10 1.0000
49 Sim, Joanne 1997-Mar-28 31:23 28.678 49/54 VAF 2/3 0.5687
50 Raymond, Jocelyn 1997-Mar-28 31:34 28.511 50/54 VBM 10/10 1.0000
51 Choquette, Robert 1997-Mar-28 32:10 27.979 51/54 VCM 8/9 1.0000
52 Pstross, Nick 1997-Mar-28 33:31 26.852 52/54 VCM 9/9 0.5564
53 Sander, Cerstin 1997-Mar-28 34:31 26.074 53/54 VAF 3/3 1.0000
54 Prefontaine, Renaud 1997-Mar-28 35:15 25.532 54/54 VDM 1/1 1.0000
Average Speed of the above 54 finishes (810km in 24:57:52):32.446
>>>Average of the Average Speeds for these 54 finishes32.774<<<
Standard Deviation of the Average Speeds for these 54 finishes3.300
Average of the Performance Ratios for the 54 rated finishes0.7614
Standard Deviation of the Performance Ratios for the 54 rated finishes0.2129
 
 OTT 1998-Apr-10 - 15km (Rockliffe Pkwy) (EvtFactor: 0.7207)

Weather (11:00): Mostly Cloudy. Temp.: 2.0°C, Humidity: 47%, DewPoint: -8.0°C, Wind: WNW 22km/h, Pressure: 100.13kPa, Visibility: 32.2km.
Weather (12:00): Mostly Cloudy. Temp.: 2.3°C, Humidity: 47%, DewPoint: -7.9°C, Wind: WNW 28km/h, Pressure: 100.14kPa, Visibility: 32.2km.
Weather (13:00): Mostly Cloudy. Temp.: 3.6°C, Humidity: 45%, DewPoint: -7.3°C, Wind: NW 20km/h, Pressure: 100.15kPa, Visibility: 32.2km.
5 1 Large, John 1998-Apr-10 21:20 42.188 1/97 VAM 1/20 0.8895
2 Datars, Paul  1998-Apr-10 21:50 41.221 2/97 VBM 1/18 0.8097
3 Burge, Craig  1998-Apr-10 22:36 39.823 3/97 VAM 2/20 0.7464
4 Stephenson, Jamie 1998-Apr-10 22:48 39.474 4/97 SEM 1/13 0.8984
5 Campbell, Colin  1998-Apr-10 23:04 39.017 5/97 VAM 3/20 0.7782
6 Hamilton, Peter 1998-Apr-10 23:09 38.877 6/97 VAM 4/20 0.7771
7 Plaunt, Peter 1998-Apr-10 23:13 38.765 7/97 SEM 2/13 1.0000
8 Ashcroft, Mike 1998-Apr-10 23:23 38.489 8/97 VAM 5/20 0.9088
9 Zollinger, Martin 1998-Apr-10 23:30 38.298 9/97 SEM 3/13 1.0000
10 MacDonald, Jason 1998-Apr-10 23:31 38.271 10/97 SEM 4/13 0.7554
11 Lewis, Ron 1998-Apr-10 23:40 38.028 11/97 VBM 2/18 1.0000
12 Burn, Colin 1998-Apr-10 23:56 37.604 12/97 CAM 1/2 0.7944
13 Smeaton, Drew 1998-Apr-10 24:09 37.267 13/97 VAM 6/20 1.0000
14 Maertens, Eppo 1998-Apr-10 24:15 37.113 14/97 VAM 7/20 1.0000
15 Dressler, Henry 1998-Apr-10 24:20 36.986 15/97 VAM 8/20 1.0000
16 Bundza, Nick 1998-Apr-10 24:23 36.910 16/97 VAM 9/20 0.8411
17 Harris, Glenn 1998-Apr-10 24:23 36.910 16/97 SEM 5/13 1.0000
18 Lewis, John 1998-Apr-10 24:24 36.885 18/97 VAM 10/20 0.7911
19 Norman, Tim 1998-Apr-10 24:28 36.785 19/97 VBM 3/18 1.0000
20 St-Amour, Pierre 1998-Apr-10 24:31 36.710 20/97 VBM 4/18 0.7144
21 Dawson, Michael 1998-Apr-10 24:41 36.462 21/97 SEM 6/13 1.0000
22 Sudac, Rick  1998-Apr-10 24:55 36.120 22/97 VBM 5/18 0.7137
23 Basu, Ben  1998-Apr-10 24:56 36.096 23/97 SEM 7/13 1.0000
24 Burdett, Avery  1998-Apr-10 25:08 35.809 24/97 VCM 1/11 0.8036
25 Kealey, Sheila 1998-Apr-10 25:10 35.762 25/97 VAF 1/7 0.7970
26 Stuart, Tom 1998-Apr-10 25:22 35.480 26/97 XXM 1/11 1.0000
27 Hunt, Marc 1998-Apr-10 25:32 35.248 27/97 XXM 2/11 1.0000
28 Ellis, John 1998-Apr-10 25:33 35.225 28/97 SEM 8/13 1.0000
29 Barton, John 1998-Apr-10 25:35 35.179 29/97 VBM 6/18 1.0000
30 Crevier, Grégoire  1998-Apr-10 25:40 35.065 30/97 VBM 7/18 0.5810
31 Delisle, Stephane 1998-Apr-10 25:41 35.042 31/97 SEM 9/13 0.7466
32 Janusauskas, Vytas  1998-Apr-10 25:41 35.042 31/97 VBM 8/18 0.8522
33 Douglas, Tamsin 1998-Apr-10 25:47 34.906 33/97 VAF 2/7 1.0000
34 Rokosh, Kevin 1998-Apr-10 25:49 34.861 34/97 VAM 11/20 0.7195
35 Weiser, Paul 1998-Apr-10 25:59 34.638 35/97 VCM 2/11 0.6308
36 Goulet, Fred 1998-Apr-10 26:00 34.615 36/97 XXM 3/11 1.0000
37 Kuelz, Ron 1998-Apr-10 26:03 34.549 37/97 SEM 10/13 0.7171
38 James, Peter 1998-Apr-10 26:07 34.461 38/97 VBM 9/18 0.7793
39 Smeulders, Paul 1998-Apr-10 26:12 34.351 39/97 VAM 12/20 0.6418
40 Bourgeault, Rick 1998-Apr-10 26:13 34.329 40/97 VAM 13/20 0.7434
41 Teske, Michael 1998-Apr-10 26:16 34.264 41/97 VAM 14/20 0.6064
42 Burke, Michael 1998-Apr-10 26:24 34.091 42/97 JUM 1/3 0.7671
43 Vasku, Herb 1998-Apr-10 26:26 34.048 43/97 VCM 3/11 1.0000
44 Phillips, Ron 1998-Apr-10 26:47 33.603 44/97 VCM 4/11 1.0000
45 Taggart, Doug 1998-Apr-10 26:50 33.540 45/97 VBM 10/18 0.6256
46 Imbrogno, Giorgio  1998-Apr-10 26:57 33.395 46/97 VBM 11/18 0.7107
47 Balint, John 1998-Apr-10 27:08 33.170 47/97 VCM 5/11 1.0000
48 McInnis, Celia  1998-Apr-10 27:08 33.170 47/97 VBF 1/3 0.8366
49 Gauthier, Renée 1998-Apr-10 27:09 33.149 49/97 SEF 1/4 1.0000
50 Voetberg, Jeff 1998-Apr-10 27:10 33.129 50/97 XXM 4/11 1.0000
51 Sanna, Alex 1998-Apr-10 27:11 33.109 51/97 XXM 5/11 1.0000
52 Wong, Wai-Ben 1998-Apr-10 27:14 33.048 52/97 JUM 2/3 0.6426
53 Hall, David  1998-Apr-10 27:19 32.947 53/97 VAM 15/20 0.7141
54 Bachman, Paul 1998-Apr-10 27:21 32.907 54/97 VAM 16/20 0.6210
55 Hickman, Lynda 1998-Apr-10 27:22 32.887 55/97 VBF 2/3 1.0000
56 Valiquette, Michel 1998-Apr-10 27:22 32.887 55/97 VAM 17/20 1.0000
57 Chedore, Paul 1998-Apr-10 27:25 32.827 57/97 SEM 11/13 0.6750
58 Knox, Stephen 1998-Apr-10 27:25 32.827 57/97 VBM 12/18 0.7461
59 Boileau, Greg 1998-Apr-10 27:27 32.787 59/97 SEM 12/13 0.6234
60 Lanos, Michael 1998-Apr-10 27:30 32.727 60/97 XXM 6/11 1.0000
61 Roy, Nadja 1998-Apr-10 27:31 32.707 61/97 VAF 3/7 0.7896
62 Wennerwald, Henning 1998-Apr-10 27:34 32.648 62/97 VCM 6/11 0.6780
63 Wright, Eric 1998-Apr-10 27:38 32.569 63/97 VAM 18/20 0.7331
64 Aller, Mo 1998-Apr-10 27:50 32.335 64/97 VDM 1/3 0.7232
65 Campbell, Eric 1998-Apr-10 27:53 32.277 65/97 CAM 2/2 0.7079
66 MacPhail, Gavin 1998-Apr-10 27:57 32.200 66/97 VAM 19/20 0.7271
67 Day, Lee-Ann 1998-Apr-10 28:00 32.143 67/97 VAF 4/7 0.8146
68 Bachman, Mike 1998-Apr-10 28:10 31.953 68/97 VCM 7/11 1.0000
69 Génier, Martin 1998-Apr-10 28:10 31.953 68/97 JUM 3/3 0.6937
70 Dassavski, John 1998-Apr-10 28:24 31.690 70/97 XXM 7/11 1.0000
71 Hickman, Paula 1998-Apr-10 28:24 31.690 70/97 VBF 3/3 1.0000
72 Berthiaume, Alicia 1998-Apr-10 28:29 31.597 72/97 SEF 2/4 0.7576
73 Slade, Lucy 1998-Apr-10 28:29 31.597 72/97 XXF 1/1 1.0000
74 Caron, Vianney 1998-Apr-10 28:47 31.268 74/97 VBM 13/18 1.0000
75 Marshy, Nadia 1998-Apr-10 28:56 31.106 75/97 VAF 5/7 0.5156
76 Simpson, Bob 1998-Apr-10 29:00 31.034 76/97 VCM 8/11 0.6292
77 Neil, Bill 1998-Apr-10 29:11 30.840 77/97 XXM 8/11 1.0000
78 Emery, Allen 1998-Apr-10 29:18 30.717 78/97 VDM 2/3 1.0000
79 Hurtubuise, Ray 1998-Apr-10 29:19 30.699 79/97 VBM 14/18 0.6855
80 Duguay, Ann 1998-Apr-10 29:29 30.526 80/97 VAF 6/7 0.5797
81 Brügger, Marcel 1998-Apr-10 29:35 30.423 81/97 VBM 15/18 0.6405
82 Reissner, Leslie 1998-Apr-10 29:45 30.252 82/97 VBM 16/18 0.6347
83 Won, Jason 1998-Apr-10 29:51 30.151 83/97 VAM 20/20 0.5329
84 McKenna, Perry 1998-Apr-10 30:07 29.884 84/97 VBM 17/18 0.8594
85 Marier, André 1998-Apr-10 30:13 29.785 85/97 VDM 3/3 0.6694
86 Dudley, David 1998-Apr-10 30:22 29.638 86/97 XXM 9/11 1.0000
87 Pronovost, Antoine 1998-Apr-10 30:30 29.508 87/97 XXM 10/11 1.0000
88 Campbell, Luc 1998-Apr-10 31:21 28.708 88/97 MIM 1/1 0.5704
89 Stein, Jack 1998-Apr-10 31:22 28.693 89/97 VCM 9/11 1.0000
90 Roy, Kathy 1998-Apr-10 31:58 28.154 90/97 VAF 7/7 1.0000
91 Kuelz, Evan 1998-Apr-10 32:18 27.864 91/97 XXM 11/11 1.0000
92 Morin, Nadja 1998-Apr-10 32:29 27.707 92/97 SEF 3/4 0.6838
93 Pstross, Nick 1998-Apr-10 33:10 27.136 93/97 VCM 10/11 0.4616
94 Agulnik, Manny 1998-Apr-10 34:24 26.163 94/97 VCM 11/11 1.0000
95 Wong, Ed 1998-Apr-10 34:42 25.937 95/97 VBM 18/18 0.4843
96 Gagné, Caroline 1998-Apr-10 34:53 25.800 96/97 SEF 4/4 1.0000
97 Perel, Fredd 1998-Apr-10 35:02 25.690 97/97 SEM 13/13 0.7293
Average Speed of the above 97 finishes (1455km in 43:55:19):33.127
>>>Average of the Average Speeds for these 97 finishes33.489<<<
Standard Deviation of the Average Speeds for these 97 finishes3.436
Average of the Performance Ratios for the 97 rated finishes0.8278
Standard Deviation of the Performance Ratios for the 97 rated finishes0.1608
 
 OTT 1999-Apr-04 - 15km (Rockliffe Pkwy) (EvtFactor: 0.6205)

Weather (11:00): Mainly Clear. Temp.: 2.9°C, Humidity: 40%, DewPoint: -9.4°C, Wind: N 19km/h, Pressure: 100.63kPa, Visibility: 40.2km.
Weather (12:00): Mainly Clear. Temp.: 3.7°C, Humidity: 32%, DewPoint: -11.6°C, Wind: N 19km/h, Pressure: 100.63kPa, Visibility: 40.2km.
Weather (13:00): Mainly Clear. Temp.: 3.9°C, Humidity: 29%, DewPoint: -12.7°C, Wind: NNE 20km/h, Pressure: 100.56kPa, Visibility: 40.2km.
6 1 Roy, Eric 1999-Apr-04 22:03 40.816 1/88 SEM 1/16 0.7977
2 Bakker, Osmond 1999-Apr-04 22:09 40.632 2/88 SEM 2/16 0.7793
3 Burge, Craig  1999-Apr-04 22:43 39.618 3/88 VAM 1/12 0.7457
4 Boileau, Greg 1999-Apr-04 23:26 38.407 4/88 SEM 3/16 0.6994
5 Hayes, Michael 1999-Apr-04 23:32 38.244 5/88 VAM 2/12 0.7449
6 Publow, Barry 1999-Apr-04 23:36 38.136 6/88 SEM 4/16 1.0000
7 Campbell, Colin  1999-Apr-04 24:09 37.267 7/88 VAM 3/12 0.7138
8 Prud'homme, Michel 1999-Apr-04 24:44 36.388 8/88 SEM 5/16 0.7150
9 Lemay, Sebastien 1999-Apr-04 24:46 36.339 9/88 JUM 1/6 1.0000
10 Villeneuve, Mathieu 1999-Apr-04 24:46 36.339 9/88 JUM 1/6 0.7186
11 Lees, Andrew 1999-Apr-04 25:02 35.952 11/88 SEM 6/16 0.7739
12 Cavazzoni, Patrizia 1999-Apr-04 25:08 35.809 12/88 VAF 1/3 0.7933
13 St-Amour, Pierre 1999-Apr-04 25:19 35.550 13/88 VBM 1/13 0.6518
14 Weiser, Paul 1999-Apr-04 25:21 35.503 14/88 VCM 1/13 0.5712
15 Guenette, Jean-Yves 1999-Apr-04 25:22 35.480 15/88 VBM 2/13 0.5755
16 Lafontaine, Bruno 1999-Apr-04 25:41 35.042 16/88 SEM 7/16 1.0000
17 Riby, Stephen 1999-Apr-04 25:41 35.042 16/88 VAM 4/12 1.0000
18 Czaban, Stefan  1999-Apr-04 25:45 34.951 18/88 SEM 8/16 0.6466
19 Taggart, Doug 1999-Apr-04 25:52 34.794 19/88 VBM 3/13 0.6655
20 Corner, Doug  1999-Apr-04 25:53 34.771 20/88 VBM 4/13 0.6598
21 Kuelz, Ron 1999-Apr-04 26:02 34.571 21/88 SEM 9/16 1.0000
22 Hall, Stephen 1999-Apr-04 26:07 34.461 22/88 SEM 10/16 0.7162
23 Thouin, Nicolas 1999-Apr-04 26:12 34.351 23/88 JUM 3/6 0.5590
24 Bachman, Paul & Roy, Kathy 1999-Apr-04 26:15 34.286 24/88 TAN 1/1 1.0000
25 Rokosh, Kevin 1999-Apr-04 26:21 34.156 25/88 VAM 5/12 0.6478
26 Chedore, Paul 1999-Apr-04 26:23 34.112 26/88 SEM 11/16 0.6439
27 Burge, Larry  1999-Apr-04 26:25 34.069 27/88 VAM 6/12 0.5633
28 Hinz, Richard 1999-Apr-04 26:25 34.069 27/88 VBM 5/13 0.5012
29 Simpson, Tait 1999-Apr-04 26:28 34.005 29/88 JUM 4/6 1.0000
30 Brown, Geoffrey 1999-Apr-04 26:29 33.984 30/88 VBM 6/13 1.0000
31 Romkey, Gary 1999-Apr-04 26:37 33.813 31/88 VCM 2/13 0.5907
32 Hicks, Bob  1999-Apr-04 26:51 33.520 32/88 VCM 3/13 0.4911
33 Wennerwald, Henning 1999-Apr-04 26:53 33.478 33/88 VCM 4/13 0.6866
34 Thomas, Trevor 1999-Apr-04 26:57 33.395 34/88 SEM 12/16 0.5317
35 Crowe, Fred 1999-Apr-04 26:58 33.375 35/88 VCM 5/13 1.0000
36 Martignago, Mike 1999-Apr-04 27:01 33.313 36/88 VBM 7/13 0.4597
37 Imbrogno, Giorgio  1999-Apr-04 27:05 33.231 37/88 VCM 6/13 0.5979
38 Forget, Marc 1999-Apr-04 27:08 33.170 38/88 SEM 13/16 0.7066
39 Ossowski, John 1999-Apr-04 27:09 33.149 39/88 VAM 7/12 0.5717
40 Janusauskas, Vytas  1999-Apr-04 27:12 33.088 40/88 VBM 8/13 0.7580
41 Won, Jason 1999-Apr-04 27:22 32.887 41/88 VAM 8/12 0.7278
42 Somogyi, Michel 1999-Apr-04 27:23 32.867 42/88 SEM 14/16 0.5389
43 Barton, John 1999-Apr-04 27:42 32.491 43/88 VBM 9/13 1.0000
44 Campbell, Eric 1999-Apr-04 27:43 32.471 44/88 JUM 5/6 0.6199
45 Hickman, Paula 1999-Apr-04 27:43 32.471 44/88 VBF 1/4 0.6752
46 MacPhail, Gavin 1999-Apr-04 27:47 32.394 46/88 VAM 9/12 1.0000
47 Hickman, Lynda 1999-Apr-04 27:50 32.335 47/88 VBF 2/4 0.6478
48 Balint, John 1999-Apr-04 27:51 32.316 48/88 VCM 7/13 0.7572
49 Beasley, David 1999-Apr-04 28:11 31.934 49/88 VCM 8/13 1.0000
50 Comeau, Richard 1999-Apr-04 28:14 31.877 50/88 VAM 10/12 1.0000
51 Brügger, Marcel 1999-Apr-04 28:20 31.765 51/88 VBM 10/13 0.5878
52 James, Peter 1999-Apr-04 28:22 31.727 52/88 VBM 11/13 0.7552
53 Balerna, Lisa 1999-Apr-04 28:30 31.579 53/88 SEF 1/1 1.0000
54 Martineau, Jean 1999-Apr-04 28:31 31.560 54/88 VAM 11/12 0.4988
55 Roy, Nadja 1999-Apr-04 28:32 31.542 55/88 VAF 2/3 1.0000
56 Sanna, Alex 1999-Apr-04 28:36 31.469 56/88 XXM 1/1 1.0000
57 Anderson, Allan 1999-Apr-04 28:37 31.450 57/88 VBM 12/13 0.5948
58 Adams, Jennifer 1999-Apr-04 28:50 31.214 58/88 VAF 3/3 1.0000
59 Munden, David 1999-Apr-04 28:50 31.214 58/88 SEM 15/16 1.0000
60 Rhodenizer, Derek 1999-Apr-04 29:00 31.034 60/88 JUM 6/6 0.6204
61 Campbell, Luc 1999-Apr-04 29:03 30.981 61/88 CAM 1/6 0.5901
62 Belanger, Alain 1999-Apr-04 29:08 30.892 62/88 CAM 2/6 0.5850
63 McInnis, Celia  1999-Apr-04 29:14 30.787 63/88 VBF 3/4 0.6572
64 Aller, Mo 1999-Apr-04 29:21 30.664 64/88 VDM 1/3 0.6131
65 Cousineau, Simon 1999-Apr-04 29:26 30.578 65/88 CAM 3/6 0.5444
66 Bachman, Mike 1999-Apr-04 29:30 30.508 66/88 VDM 2/3 1.0000
67 Tremblay, Kathy 1999-Apr-04 29:32 30.474 67/88 JUF 1/2 0.8044
68 Beauregard, Hilda 1999-Apr-04 29:34 30.440 68/88 VBF 4/4 1.0000
69 Barber, Graeme 1999-Apr-04 29:41 30.320 69/88 VCM 9/13 1.0000
70 Tsang, Justin 1999-Apr-04 30:10 29.834 70/88 CAM 4/6 0.5500
71 Roy, William 1999-Apr-04 30:30 29.508 71/88 CAM 5/6 0.4721
72 Phillips, Ron 1999-Apr-04 30:40 29.348 72/88 VCM 10/13 1.0000
73 Dumoulin, Stéphanie 1999-Apr-04 30:43 29.300 73/88 CAF 1/1 0.5766
74 Garneau, Valérie 1999-Apr-04 30:57 29.079 74/88 JUF 2/2 1.0000
75 Pstross, Nick 1999-Apr-04 31:59 28.140 75/88 VCM 11/13 0.6627
76 Charbonneau, Eric 1999-Apr-04 32:05 28.052 76/88 MIM 1/1 0.6049
77 Wilson, Barbara  1999-Apr-04 32:37 27.593 77/88 VCF 1/3 1.0000
78 Salois, Olivier 1999-Apr-04 32:51 27.397 78/88 CAM 6/6 0.4873
79 Bilenkey, David 1999-Apr-04 33:03 27.231 79/88 VAM 12/12 1.0000
80 Olsen, Mike 1999-Apr-04 33:15 27.068 80/88 VCM 12/13 1.0000
81 Bruyere, Patrick 1999-Apr-04 33:16 27.054 81/88 SEM 16/16 0.5659
82 Reid, George 1999-Apr-04 33:35 26.799 82/88 VBM 13/13 1.0000
83 Denys, Laurent 1999-Apr-04 33:36 26.786 83/88 VDM 3/3 0.6508
84 Chasles, Emilie 1999-Apr-04 33:38 26.759 84/88 MIF 1/2 1.0000
85 Smith, Richard 1999-Apr-04 35:54 25.070 85/88 VCM 13/13 1.0000
86 Roy, Mila 1999-Apr-04 35:59 25.012 86/88 MIF 2/2 0.5244
87 Madill, Jacqueline  1999-Apr-04 37:04 24.281 87/88 VCF 2/3 1.0000
88 Weerasinghe, Jean 1999-Apr-04 41:01 21.942 88/88 VCF 3/3 1.0000
Average Speed of the above 88 finishes (1320km in 41:25:12):31.869
>>>Average of the Average Speeds for these 88 finishes32.286<<<
Standard Deviation of the Average Speeds for these 88 finishes3.571
Average of the Performance Ratios for the 88 rated finishes0.7635
Standard Deviation of the Performance Ratios for the 88 rated finishes0.1891
 
 OTT 2000-Apr-21 - 15km (Rockliffe Pkwy)

Weather (11:00): Rain and Fog. Temp.: 3.6°C, Humidity: 86%, DewPoint: 1.4°C, Wind: ENE 33km/h, Pressure: 99.59kPa, Visibility: 8.0km.
Weather (12:00): Rain and Fog. Temp.: 4.7°C, Humidity: 85%, DewPoint: 2.4°C, Wind: E 33km/h, Pressure: 99.59kPa, Visibility: 3.2km.
7 1 McInnis, Celia  2000-Apr-21 WHR   1/2 VBF 1/1  
2 St-Amour, Pierre 2000-Apr-21 WHR   1/2 VBM 1/1  
 OTT 2001-Apr-13 - 15km (Rockliffe Pkwy) (EvtFactor: 0.6036)

Weather (12:00): Cloudy, a few rain drops. Temp.: 9°C, Wind: W 31.7km/h.
8 1 Reain, Alan 2001-Apr-13 22:54 39.301 1/75 SEM 1/14 1.0000
2 Boileau, Greg 2001-Apr-13 23:00 39.130 2/75 SEM 2/14 0.7185
3 Hinz, Richard 2001-Apr-13 23:12 38.793 3/75 VBM 1/10 0.6967
4 Burge, Craig  2001-Apr-13 23:23 38.489 4/75 VBM 2/10 0.6921
5 Hellard, Rick 2001-Apr-13 23:56 37.604 5/75 VAM 1/19 1.0000
6 Publow, Barry 2001-Apr-13 24:28 36.785 6/75 VAM 2/19 0.7387
7 Ivanov, Alexei 2001-Apr-13 24:53 36.169 7/75 JUM 1/4 0.6740
8 Czaban, Stefan  2001-Apr-13 25:24 35.433 8/75 SEM 3/14 0.6797
9 Moerman, Bram  2001-Apr-13 25:58 34.660 9/75 VCM 1/8 0.6434
10 Somogyi, Michel 2001-Apr-13 26:22 34.134 10/75 SEM 4/14 0.7080
11 Brown, Greg 2001-Apr-13 26:27 34.026 11/75 VCM 2/8 0.6575
12 Yokarinis, Basil 2001-Apr-13 26:31 33.941 12/75 VAM 3/19 0.6526
13 Varney, Justin 2001-Apr-13 26:35 33.856 13/75 SEM 5/14 1.0000
14 Wilmot, Andrew 2001-Apr-13 26:40 33.750 14/75 SEM 6/14 0.5953
15 Taylor, Chris 2001-Apr-13 26:41 33.729 15/75 VBM 3/10 0.6933
16 Kerr, Rob 2001-Apr-13 26:51 33.520 16/75 VAM 4/19 1.0000
17 Nelson, Kevin 2001-Apr-13 27:00 33.333 17/75 VAM 5/19 0.7111
18 Raths, Dieter 2001-Apr-13 27:01 33.313 18/75 SEM 7/14 0.5461
19 Liversidge, Doug 2001-Apr-13 27:12 33.088 19/75 VAM 6/19 0.7641
20 Beattie, Lyall 2001-Apr-13 27:13 33.068 20/75 VAM 7/19 0.5738
21 Tsang, Justin 2001-Apr-13 27:21 32.907 21/75 JUM 2/4 0.6143
22 Christie, Roddy 2001-Apr-13 27:24 32.847 22/75 VAM 8/19 0.7178
23 Wolfson, Lynne 2001-Apr-13 27:25 32.827 23/75 JUF 1/1 0.7195
24 Tregunno, Peter  2001-Apr-13 27:26 32.807 24/75 SEM 8/14 1.0000
25 Lampi, Allison 2001-Apr-13 27:42 32.491 25/75 SEF 1/1 0.8349
26 Roy, Marc 2001-Apr-13 27:53 32.277 26/75 VAM 9/19 0.5588
27 Snider, Aaron 2001-Apr-13 28:02 32.105 27/75 SEM 9/14 0.5079
28 Hickman, Lynda 2001-Apr-13 28:16 31.840 28/75 VCF 1/5 1.0000
29 Henry, Angus 2001-Apr-13 28:26 31.653 29/75 VAM 10/19 1.0000
30 O'Halloran, Matthieu 2001-Apr-13 28:29 31.597 30/75 CAM 1/2 1.0000
31 MacEwan, Peter 2001-Apr-13 28:31 31.560 31/75 SEM 10/14 0.7755
32 Mulvihill, Peter 2001-Apr-13 28:31 31.560 31/75 SEM 10/14 0.5178
33 McKie, David 2001-Apr-13 28:34 31.505 33/75 VBM 4/10 1.0000
34 Anderson, Allan 2001-Apr-13 28:36 31.469 34/75 VBM 5/10 0.5751
35 Rayner, Dave 2001-Apr-13 28:44 31.323 35/75 VAM 11/19 1.0000
36 Burge, Larry  2001-Apr-13 28:45 31.304 36/75 VAM 12/19 0.5131
37 Ménard, Julien 2001-Apr-13 28:45 31.304 36/75 JUM 3/4 1.0000
38 Campbell, Eric 2001-Apr-13 28:49 31.232 38/75 SEM 12/14 0.6451
39 Campbell, Luc 2001-Apr-13 28:57 31.088 39/75 JUM 4/4 0.8744
40 Moll, Rick 2001-Apr-13 29:06 30.928 40/75 VCM 3/8 0.8532
41 Douglas, Tim 2001-Apr-13 29:18 30.717 41/75 VAM 13/19 1.0000
42 Robinson, Glenn 2001-Apr-13 29:46 30.235 42/75 VAM 14/19 1.0000
43 Cassidy, Lesley 2001-Apr-13 30:08 29.867 43/75 VAF 1/7 1.0000
44 Grabinski, Eva 2001-Apr-13 30:10 29.834 44/75 VAF 2/7 0.7658
45 Radford, Normand 2001-Apr-13 30:16 29.736 45/75 VBM 6/10 0.5424
46 Janusauskas, Vytas  2001-Apr-13 30:18 29.703 46/75 VBM 7/10 0.4980
47 Bakker, Cathy 2001-Apr-13 30:19 29.687 47/75 VAF 3/7 0.7012
48 Barnett, David 2001-Apr-13 30:30 29.508 48/75 VCM 4/8 0.5387
49 Adshead, Mark 2001-Apr-13 30:34 29.444 49/75 VCM 5/8 0.5626
50 Burke, Aaron 2001-Apr-13 30:45 29.268 50/75 SEM 13/14 0.5110
51 Hall, David  2001-Apr-13 30:54 29.126 51/75 VAM 15/19 0.5036
52 Hickman, Paula 2001-Apr-13 30:54 29.126 51/75 VCF 2/5 0.5609
53 Munden, David 2001-Apr-13 30:56 29.095 53/75 VAM 16/19 1.0000
54 Anderson, Brock 2001-Apr-13 30:57 29.079 54/75 CAM 2/2 0.4970
55 Keogh, Lauri 2001-Apr-13 30:59 29.048 55/75 VAF 4/7 1.0000
56 Wright, Eric 2001-Apr-13 31:02 29.001 56/75 VAM 17/19 0.4732
57 Hunter, Nancee 2001-Apr-13 31:10 28.877 57/75 VAF 5/7 0.5466
58 Samborsky, Mark 2001-Apr-13 31:13 28.831 58/75 VAM 18/19 0.4630
59 McInnis, Celia  2001-Apr-13 31:20 28.723 59/75 VBF 1/3 0.5464
60 Gray, Leona  2001-Apr-13 31:34 28.511 60/75 VCF 3/5 0.6017
61 Knox, Stephen 2001-Apr-13 31:43 28.376 61/75 VBM 8/10 1.0000
62 Howe, Sabrina 2001-Apr-13 31:46 28.332 62/75 VAF 6/7 0.4855
63 Armstrong, Jane 2001-Apr-13 32:00 28.125 63/75 VBF 2/3 0.6312
64 Crowe, Sean 2001-Apr-13 32:44 27.495 64/75 VAM 19/19 0.6259
65 Bell, Donna Lee 2001-Apr-13 32:48 27.439 65/75 VAF 7/7 0.7226
66 Begg, Richard 2001-Apr-13 32:57 27.314 66/75 VCM 6/8 1.0000
67 Wright, Geoffrey  2001-Apr-13 33:30 26.866 67/75 VEM 1/1 0.5006
68 Madill, Jacqueline  2001-Apr-13 36:15 24.828 68/75 VCF 4/5 1.0000
69 Anderson, Kerry 2001-Apr-13 36:27 24.691 69/75 VBF 3/3 1.0000
70 Begg, Heather-Sue 2001-Apr-13 36:34 24.613 70/75 VCF 5/5 1.0000
71 Parkins, Robert 2001-Apr-13 39:03 23.047 71/75 VCM 7/8 1.0000
72 Twemlow, John 2001-Apr-13 40:08 22.425 72/75 VBM 9/10 0.4789
73 Hunter, Todd 2001-Apr-13 DNS   73/75 SEM 14/14  
74 Massun, Harry 2001-Apr-13 DNS   73/75 VBM 10/10  
75 Phillips, Ron 2001-Apr-13 DNS   73/75 VCM 8/8  
Average Speed of the above 72 finishes (1080km in 35:06:21):30.764
>>>Average of the Average Speeds for these 72 finishes31.163<<<
Standard Deviation of the Average Speeds for these 72 finishes3.490
Average of the Performance Ratios for the 72 rated finishes0.7390
Standard Deviation of the Performance Ratios for the 72 rated finishes0.1945
 
 OTT 2002-Mar-29 - 15km (Rockliffe Pkwy) (EvtFactor: 0.6324)

Weather (10:00): Mostly Cloudy. Temp.: 3°C, Wind: E 6km/h
9 1 Bakker, Osmond 2002-Mar-29 22:10 40.602 1/32 VAM 1/8 0.6808
2 Boileau, Greg 2002-Mar-29 22:36 39.823 2/32 SEM 1/9 1.0000
3 Gorman, Charlie 2002-Mar-29 23:48 37.815 3/32 SEM 2/9 1.0000
4 Roy, Patrick 2002-Mar-29 24:21 36.961 4/32 VBM 1/8 0.6932
5 Burdett, Avery  2002-Mar-29 24:49 36.266 5/32 VDM 1/2 0.7704
6 Lau, Michael 2002-Mar-29 24:54 36.145 6/32 VBM 2/8 0.6788
7 Ivanov, Alexei 2002-Mar-29 25:04 35.904 7/32 SEM 3/9 0.7296
8 Tsang, Justin 2002-Mar-29 25:13 35.691 8/32 JUM 1/1 0.8128
9 Bilenkey, David 2002-Mar-29 25:18 35.573 9/32 VAM 2/8 0.6971
10 LaRochelle, Mike 2002-Mar-29 25:29 35.317 10/32 VAM 3/8 0.5771
11 Tregunno, Peter  2002-Mar-29 25:46 34.929 11/32 SEM 4/9 1.0000
12 Czaban, Stefan  2002-Mar-29 25:58 34.660 12/32 SEM 5/9 0.6696
13 DeVidi, Robert  2002-Mar-29 26:20 34.177 13/32 VAM 4/8 1.0000
14 Demers, François 2002-Mar-29 26:21 34.156 14/32 VAM 5/8 0.6521
15 Graves, Kevin 2002-Mar-29 26:21 34.156 14/32 SEM 6/9 0.5208
16 Chen, Gerald 2002-Mar-29 26:49 33.561 16/32 SEM 7/9 1.0000
17 Radford, Normand 2002-Mar-29 27:30 32.727 17/32 VBM 3/8 0.6468
18 Taylor, Chris 2002-Mar-29 27:43 32.471 18/32 VBM 4/8 0.6212
19 St-Amour, Pierre 2002-Mar-29 27:58 32.181 19/32 VBM 5/8 0.5104
20 McInnis, Celia  2002-Mar-29 28:02 32.105 20/32 VBF 1/1 0.7409
21 Shrive, Graham 2002-Mar-29 28:13 31.896 21/32 SEM 8/9 0.5104
22 Barnett, David 2002-Mar-29 28:53 31.160 22/32 VDM 2/2 0.7155
23 Janusauskas, Vytas  2002-Mar-29 29:04 30.963 23/32 VBM 6/8 0.6845
24 Hall, David  2002-Mar-29 29:09 30.875 24/32 VBM 7/8 0.5318
25 Brennan, Jeff 2002-Mar-29 29:23 30.630 25/32 VAM 6/8 1.0000
26 Hauschildt, Gunter 2002-Mar-29 29:23 30.630 25/32 VAM 6/8 1.0000
27 Raths, Dieter 2002-Mar-29 30:22 29.638 27/32 VAM 8/8 0.4605
28 Somogyi, Michel 2002-Mar-29 30:49 29.205 28/32 SEM 9/9 0.3944
29 Lalonde, Michel 2002-Mar-29 34:17 26.252 29/32 VCM 1/2 0.4876
30 Charette, Michel 2002-Mar-29 34:30 26.087 30/32 VCM 2/2 1.0000
31 Howe, Sabrina 2002-Mar-29 36:25 24.714 31/32 VAF 1/1 1.0000
32 Twemlow, John 2002-Mar-29 37:23 24.075 32/32 VBM 8/8 0.6136
Average Speed of the above 32 finishes (480km in 14:50:21):32.347
>>>Average of the Average Speeds for these 32 finishes32.855<<<
Standard Deviation of the Average Speeds for these 32 finishes3.934
Average of the Performance Ratios for the 32 rated finishes0.7312
Standard Deviation of the Performance Ratios for the 32 rated finishes0.1907
 
 OTT 2003-Apr-18 - 15km (Rockliffe Pkwy) (EvtFactor: 0.6574)

Weather (11:00): Mostly Cloudy. Temp.: 6°C, Humidity 43%, Pressure: 102.7kPa, Wind: ESE 16km/h.
Weather (12:00): Mostly Cloudy. Temp.: 8°C, Humidity 40%, Pressure: 102.7kPa, Wind: SE 11km/h.
10 1 Bakker, Osmond 2003-Apr-18 21:42 41.475 1/56 VAM 1/14 1.0000
2 Burge, Craig  2003-Apr-18 22:10 40.602 2/56 VBM 1/11 0.7438
3 Wakefield, Sean 2003-Apr-18 22:38 39.764 3/56 VAM 2/14 0.7358
4 Campbell, Colin  2003-Apr-18 23:03 39.046 4/56 VBM 2/11 0.7891
5 Hinz, Richard 2003-Apr-18 23:05 38.989 5/56 VBM 3/11 0.7893
6 Hamilton, Peter 2003-Apr-18 23:31 38.271 6/56 VBM 4/11 0.7020
7 Shrive, Graham 2003-Apr-18 23:53 37.683 7/56 SEM 1/5 0.9107
8 Johnson, Jamie 2003-Apr-18 23:58 37.552 8/56 VAM 3/14 0.6743
9 Simpson, Tait 2003-Apr-18 24:08 37.293 9/56 SEM 2/5 1.0000
10 Kerckhoff, Hermann  2003-Apr-18 24:11 37.216 10/56 VDM 1/3 0.8491
11 Moerman, Bram  2003-Apr-18 24:22 36.936 11/56 VCM 1/6 0.7512
12 Gustavsson, Robert 2003-Apr-18 24:36 36.585 12/56 JUM 1/2 0.6250
13 Parniak, Robert  2003-Apr-18 24:37 36.561 13/56 SEM 3/5 0.6929
14 Demers, François 2003-Apr-18 25:10 35.762 14/56 VAM 4/14 0.6757
15 Stachon, David 2003-Apr-18 25:11 35.738 15/56 VAM 5/14 0.6607
16 Somogyi, Michel 2003-Apr-18 25:18 35.573 16/56 SEM 4/5 0.7399
17 Kealey, Sheila 2003-Apr-18 25:20 35.526 17/56 VAF 1/7 0.7210
18 Burdett, Avery  2003-Apr-18 25:23 35.456 18/56 VDM 2/3 0.6750
19 Walker, Blair 2003-Apr-18 25:24 35.433 19/56 VAM 6/14 0.6737
20 Polyzos, Aris 2003-Apr-18 25:43 34.997 20/56 VAM 7/14 0.6757
21 Musson, Harry 2003-Apr-18 25:51 34.816 21/56 VCM 2/6 0.6832
22 Bilenkey, David 2003-Apr-18 25:58 34.660 22/56 VAM 8/14 0.6651
23 Lacroix, Guy 2003-Apr-18 26:02 34.571 23/56 VAM 9/14 0.7016
24 Macknie, Chris  2003-Apr-18 26:08 34.439 24/56 VAM 10/14 0.6554
25 Imbrogno, Giorgio  2003-Apr-18 26:19 34.199 25/56 VCM 3/6 0.6807
26 Tregunno, Peter  2003-Apr-18 26:29 33.984 26/56 SEM 5/5 0.6869
27 McKay, Allison  2003-Apr-18 26:31 33.941 27/56 VAF 2/7 0.6329
28 Crevier, Grégoire  2003-Apr-18 26:36 33.835 28/56 VBM 5/11 0.6229
29 McKay, Andrea  2003-Apr-18 26:43 33.687 29/56 VAF 3/7 0.6820
30 Marvin, Kristin 2003-Apr-18 26:47 33.603 30/56 SEF 1/2 0.6885
31 Balint, John 2003-Apr-18 26:56 33.416 31/56 VDM 3/3 0.8790
32 Ménard-Kilrane, René 2003-Apr-18 27:09 33.149 32/56 JUM 2/2 0.5579
33 Janusauskas, Vytas  2003-Apr-18 27:36 32.609 33/56 VBM 6/11 0.6881
34 Houlahan, Terrence 2003-Apr-18 28:03 32.086 34/56 VAM 11/14 0.7367
35 Beaton, Dale 2003-Apr-18 28:26 31.653 35/56 CAM 1/1 0.4313
36 Burge, Larry  2003-Apr-18 28:34 31.505 36/56 VBM 7/11 0.5543
37 McInnis, Celia  2003-Apr-18 28:42 31.359 37/56 VBF 1/2 0.7028
38 Panchen, Zoe  2003-Apr-18 28:43 31.341 38/56 VAF 4/7 0.6428
39 Samborsky, Mark 2003-Apr-18 28:57 31.088 39/56 VAM 12/14 0.4299
40 Ujjainwalla, Janet 2003-Apr-18 29:27 30.560 40/56 VBF 2/2 1.0000
41 Boyd, Heather 2003-Apr-18 29:47 30.218 41/56 VAF 5/7 0.7178
42 Sargent, Larry 2003-Apr-18 29:50 30.168 42/56 VBM 8/11 0.4744
43 Cameron, Allen  2003-Apr-18 30:00 30.000 43/56 VBM 9/11 0.4972
44 Gray, Leona  2003-Apr-18 30:27 29.557 44/56 VCF 1/3 0.5793
45 Quig, Jim 2003-Apr-18 30:45 29.268 45/56 VAM 13/14 1.0000
46 Logan, Doug 2003-Apr-18 30:55 29.111 46/56 VAM 14/14 0.6539
47 Clarke, Graham 2003-Apr-18 31:15 28.800 47/56 VBM 10/11 0.5508
48 Quance, Terry 2003-Apr-18 31:25 28.647 48/56 VCM 4/6 0.6013
49 Buser, Hans 2003-Apr-18 31:26 28.632 49/56 VCM 5/6 1.0000
50 Luitwieler, Nancy  2003-Apr-18 31:34 28.511 50/56 VCF 2/3 1.0000
51 Spanos, Gus 2003-Apr-18 31:52 28.243 51/56 VBM 11/11 0.6881
52 Wilkinson, Lori 2003-Apr-18 32:06 28.037 52/56 VAF 6/7 0.6219
53 Madill, Jacqueline  2003-Apr-18 32:38 27.579 53/56 VCF 3/3 1.0000
54 Adam, Josée 2003-Apr-18 32:44 27.495 54/56 SEF 2/2 0.6542
55 McLaren, Louise  2003-Apr-18 33:14 27.081 55/56 VAF 7/7 0.4965
56 Hardy, Robert 2003-Apr-18 33:41 26.719 56/56 VCM 6/6 0.5363
Average Speed of the above 56 finishes (840km in 25:32:59):32.877
>>>Average of the Average Speeds for these 56 finishes33.304<<<
Standard Deviation of the Average Speeds for these 56 finishes3.763
Average of the Performance Ratios for the 56 rated finishes0.7050
Standard Deviation of the Performance Ratios for the 56 rated finishes0.1455
 
 OTT 2004-Apr-09 - 15km (Rockliffe Pkwy) (EvtFactor: 0.7169)

Weather (11:00): Mainly Sunny. Temp.: 2°C, Humidity: 46%, DewPoint: -8°C, Wind: WNW 15km/h, Pressure: 101.1kPa, Visibility: 24km, WindChill: *.
Weather (12:00): Mainly Sunny. Temp.: 3°C, Humidity: 46%, DewPoint: -8°C, Wind: W 18km/h, Pressure: 101.1kPa, Visibility: 24km, WindChill: *.
Weather (13:00): Partly Cloudy. Temp.: 4°C, Humidity: 44%, DewPoint: -7°C, Wind: W 15km/h, Pressure: 101.1kPa, Visibility: 24km, WindChill: *.
11 1 Burge, Craig  2004-Apr-09 21:37 41.635 1/118 VBM 1/28 0.8866
2 Desbiens, Martin 2004-Apr-09 22:12 40.541 2/118 VAM 1/20 0.8425
3 Reain, Greg 2004-Apr-09 22:13 40.510 3/118 SEM 1/15 0.7350
4 Fillion, Jean-François 2004-Apr-09 22:20 40.299 4/118 VBM 2/28 1.0000
5 Czaban, Stefan  2004-Apr-09 23:03 39.046 5/118 VAM 2/20 0.9117
6 Gustavsson, Robert 2004-Apr-09 23:23 38.489 6/118 JUM 1/2 0.7417
7 Graves, Kevin 2004-Apr-09 23:33 38.217 7/118 SEM 2/15 0.8664
8 Hinz, Richard 2004-Apr-09 23:42 37.975 8/118 VBM 3/28 0.8090
9 Wilkinson, Ross 2004-Apr-09 23:51 37.736 9/118 VBM 4/28 0.8699
10 Thibault, Jean-Pierre 2004-Apr-09 23:54 37.657 10/118 SEM 3/15 0.8069
11 Demers, François 2004-Apr-09 23:55 37.631 11/118 VAM 3/20 0.8106
12 Weiser, Paul 2004-Apr-09 23:56 37.604 12/118 VCM 1/16 0.7149
13 Campbell, Colin  2004-Apr-09 24:02 37.448 13/118 VBM 5/28 0.7378
14 Burdett, Avery  2004-Apr-09 24:04 37.396 14/118 VDM 1/4 0.8466
15 Fontaine, Randy 2004-Apr-09 24:07 37.319 15/118 VAM 4/20 0.7730
16 Polyzos, Aris 2004-Apr-09 24:07 37.319 15/118 VAM 4/20 0.7748
17 Handel, Stephen 2004-Apr-09 24:12 37.190 17/118 SEM 4/15 1.0000
18 Elliott, Natasha 2004-Apr-09 24:23 36.910 18/118 SEF 1/4 0.8157
19 Martinet, Dominique 2004-Apr-09 24:32 36.685 19/118 VAM 6/20 0.7376
20 O'Blenes, Paul 2004-Apr-09 24:34 36.635 20/118 VBM 6/28 0.7632
21 Maley, Chris 2004-Apr-09 24:38 36.536 21/118 VAM 7/20 1.0000
22 Garcia-Escudero, Emmanuel 2004-Apr-09 24:40 36.486 22/118 SEM 5/15 1.0000
23 DeKelver, Michael 2004-Apr-09 24:44 36.388 23/118 VAM 8/20 0.8076
24 McMillan, Brent 2004-Apr-09 24:44 36.388 23/118 SEM 6/15 0.7395
25 Pazdzior, Ellen  2004-Apr-09 24:48 36.290 25/118 VBF 1/10 0.8257
26 Plaunt, Peter 2004-Apr-09 24:54 36.145 26/118 VAM 9/20 0.8825
27 Tregunno, Peter  2004-Apr-09 24:56 36.096 27/118 SEM 7/15 1.0000
28 Budgell, Glen  2004-Apr-09 24:58 36.048 28/118 VBM 7/28 0.7157
29 Imbrogno, Giorgio  2004-Apr-09 25:00 36.000 29/118 VCM 2/16 0.7992
30 Shaw, Amanda 2004-Apr-09 25:02 35.952 30/118 VAF 1/8 0.7789
31 Brown, Greg 2004-Apr-09 25:04 35.904 31/118 VCM 3/16 0.7443
32 McCutcheon, Drew 2004-Apr-09 25:09 35.785 32/118 VAM 10/20 1.0000
33 Guignard, Christian 2004-Apr-09 25:15 35.644 33/118 VCM 4/16 0.7959
34 Musson, Harry 2004-Apr-09 25:24 35.433 34/118 VCM 5/16 0.7360
35 Winfield, Nicholas 2004-Apr-09 25:25 35.410 35/118 VAM 11/20 1.0000
36 Shrive, Graham 2004-Apr-09 25:26 35.387 36/118 SEM 8/15 0.7063
37 McKay, Allison  2004-Apr-09 25:27 35.363 37/118 VAF 2/8 0.7592
38 Hill, Greg  2004-Apr-09 25:28 35.340 38/118 VAM 12/20 0.6476
39 Johnson, Neil 2004-Apr-09 25:31 35.271 39/118 SEM 9/15 0.5926
40 Hicks, Bob  2004-Apr-09 25:39 35.088 40/118 VCM 6/16 0.6411
41 Dressler, Henry 2004-Apr-09 25:42 35.019 41/118 VBM 8/28 1.0000
42 Brügger, Marcel 2004-Apr-09 25:45 34.951 42/118 VBM 9/28 1.0000
43 Kealey, Sheila 2004-Apr-09 25:48 34.884 43/118 VBF 2/10 0.7318
44 Bilenkey, David 2004-Apr-09 25:53 34.771 44/118 VAM 13/20 0.7388
45 Furry, Jeffrey 2004-Apr-09 25:54 34.749 45/118 VAM 14/20 0.7646
46 Janusauskas, Vytas  2004-Apr-09 25:54 34.749 45/118 VBM 10/28 0.8621
47 Takacs, Jim 2004-Apr-09 26:02 34.571 47/118 VBM 11/28 0.8523
48 Fulton, Alexander 2004-Apr-09 26:04 34.527 48/118 JUM 2/2 0.6960
49 Somogyi, Michel 2004-Apr-09 26:05 34.505 49/118 SEM 10/15 0.7037
50 Laurin, Jean 2004-Apr-09 26:06 34.483 50/118 VBM 12/28 1.0000
51 Flavell, Michael 2004-Apr-09 26:20 34.177 51/118 CAM 1/1 0.7198
52 Aimers, Julia 2004-Apr-09 26:28 34.005 52/118 VBF 3/10 0.9210
53 Samborsky, Mark 2004-Apr-09 26:29 33.984 53/118 VAM 15/20 0.6228
54 DeVidi, Robert  2004-Apr-09 26:32 33.920 54/118 VBM 13/28 0.7172
55 Hess, Detlef 2004-Apr-09 26:37 33.813 55/118 VBM 14/28 0.6651
56 James, Peter 2004-Apr-09 26:38 33.792 56/118 VCM 7/16 0.6553
57 Flanders, April 2004-Apr-09 26:53 33.478 57/118 VAF 3/8 0.7130
58 Swift, Colin 2004-Apr-09 27:01 33.313 58/118 VBM 15/28 1.0000
59 Gormley, Bryan 2004-Apr-09 27:08 33.170 59/118 VBM 16/28 0.7347
60 Bellinger, Ted 2004-Apr-09 27:15 33.028 60/118 VBM 17/28 1.0000
61 Stocki, Trevor 2004-Apr-09 27:15 33.028 60/118 VAM 16/20 1.0000
62 McKay, Andrea  2004-Apr-09 27:20 32.927 62/118 VAF 4/8 0.6437
63 Lacroix, Guy 2004-Apr-09 27:21 32.907 63/118 VAM 17/20 0.6250
64 Unrau, David 2004-Apr-09 27:22 32.887 64/118 VAM 18/20 0.8106
65 Burge, Larry  2004-Apr-09 27:23 32.867 65/118 VBM 18/28 0.5849
66 Dionne, Suzanne  2004-Apr-09 27:23 32.867 65/118 VBF 4/10 0.7046
67 Vaz, Linda & Vaz, Paul 2004-Apr-09 27:23 32.867 65/118 TAN 1/1 1.0000
68 Denis, Joel 2004-Apr-09 27:24 32.847 68/118 SEM 11/15 0.7919
69 Simard, Claudine 2004-Apr-09 27:39 32.550 69/118 VBF 5/10 0.6914
70 Shore, Daniel 2004-Apr-09 27:42 32.491 70/118 SEM 12/15 0.6423
71 Morris, Steve 2004-Apr-09 27:47 32.394 71/118 VAM 19/20 1.0000
72 Johnson, Byron  2004-Apr-09 27:54 32.258 72/118 VCM 8/16 0.7862
73 Viljoen, David 2004-Apr-09 28:01 32.124 73/118 VBM 19/28 0.6728
74 Bell, Neil 2004-Apr-09 28:03 32.086 74/118 VCM 9/16 0.6251
75 Quance, Terry 2004-Apr-09 28:07 32.009 75/118 VCM 10/16 0.7171
76 Gauthier, Lisa 2004-Apr-09 28:12 31.915 76/118 VAF 5/8 0.6177
77 Switzer, Gary 2004-Apr-09 28:16 31.840 77/118 VCM 11/16 1.0000
78 Cameron, Allen  2004-Apr-09 28:19 31.783 78/118 VBM 20/28 0.5084
79 Trevisanutto, Laura 2004-Apr-09 28:21 31.746 79/118 SEF 2/4 1.0000
80 Bender, Sandra  2004-Apr-09 28:22 31.727 80/118 VBF 6/10 1.0000
81 Sargent, Larry 2004-Apr-09 28:32 31.542 81/118 VBM 21/28 0.5852
82 Garrett, Jennifer 2004-Apr-09 28:35 31.487 82/118 VAF 6/8 0.6866
83 Jardine, Brian 2004-Apr-09 29:03 30.981 83/118 VAM 20/20 1.0000
84 Green, Tristan 2004-Apr-09 29:04 30.963 84/118 SEM 13/15 1.0000
85 Donnelly, Marie 2004-Apr-09 29:06 30.928 85/118 VBF 7/10 1.0000
86 Armstrong, Jane 2004-Apr-09 29:11 30.840 86/118 VCF 1/7 0.7716
87 Grabinski, Eva 2004-Apr-09 29:13 30.804 87/118 VAF 7/8 0.8173
88 Campbell, Eric 2004-Apr-09 29:14 30.787 88/118 SEM 14/15 0.6106
89 Konantz, Patricia  2004-Apr-09 29:17 30.734 89/118 VCF 2/7 0.7094
90 McInnis, Celia  2004-Apr-09 29:18 30.717 90/118 VBF 8/10 0.6961
91 Anderson, Allan 2004-Apr-09 29:21 30.664 91/118 VBM 22/28 0.5900
92 Vial, Sergio 2004-Apr-09 29:41 30.320 92/118 VBM 23/28 1.0000
93 Hanham, Tanya 2004-Apr-09 29:43 30.286 93/118 SEF 3/4 1.0000
94 Gauthier, Antoine 2004-Apr-09 29:47 30.218 94/118 SEM 15/15 0.5309
95 McElligott, Scott 2004-Apr-09 29:56 30.067 95/118 VBM 24/28 1.0000
96 Wright, Geoffrey  2004-Apr-09 30:11 29.818 96/118 VEM 1/1 0.7481
97 Lavergne-Lemay, Ashley 2004-Apr-09 30:33 29.460 97/118 CAF 1/1 0.9661
98 Stoneham, Ron 2004-Apr-09 30:33 29.460 97/118 VDM 2/4 0.6344
99 Hickman, Paula 2004-Apr-09 30:34 29.444 99/118 VCF 3/7 1.0000
100 Begg, Richard 2004-Apr-09 30:39 29.364 100/118 VCM 12/16 0.6379
101 McLaren, Louise  2004-Apr-09 30:40 29.348 101/118 VAF 8/8 0.6404
102 Grossman, Ron 2004-Apr-09 30:49 29.205 102/118 VBM 25/28 0.6577
103 Stein, Hurd 2004-Apr-09 30:49 29.205 102/118 VCM 13/16 0.5902
104 Bonneville, Maurice 2004-Apr-09 30:54 29.126 104/118 VCM 14/16 0.6295
105 MacIntosh, Gregor 2004-Apr-09 30:56 29.095 105/118 VDM 3/4 0.7390
106 Hall, David  2004-Apr-09 30:58 29.064 106/118 VBM 26/28 0.4872
107 Plunkett, Rodney 2004-Apr-09 31:00 29.032 107/118 VBM 27/28 1.0000
108 Bradfield, Annette 2004-Apr-09 31:48 28.302 108/118 VBF 9/10 0.7716
109 Wilson, Barbara  2004-Apr-09 32:15 27.907 109/118 VCF 4/7 1.0000
110 Luitwieler, Nancy  2004-Apr-09 32:19 27.849 110/118 VCF 5/7 1.0000
111 Green, Richard 2004-Apr-09 32:44 27.495 111/118 VCM 15/16 1.0000
112 Murray, Trish 2004-Apr-09 33:10 27.136 112/118 VBF 10/10 0.6224
113 Weerasinghe, Jean 2004-Apr-09 33:22 26.973 113/118 VCF 6/7 1.0000
114 Marier, André 2004-Apr-09 33:38 26.759 114/118 VDM 4/4 1.0000
115 Field, Terry 2004-Apr-09 34:51 25.825 115/118 VCM 16/16 1.0000
116 Madill, Jacqueline  2004-Apr-09 35:05 25.653 116/118 VCF 7/7 1.0000
117 Soros, Jessica 2004-Apr-09 35:57 25.035 117/118 SEF 4/4 1.0000
118 Twemlow, John 2004-Apr-09 38:14 23.540 118/118 VBM 28/28 0.7348
Average Speed of the above 118 finishes (1770km in 53:57:00):32.808
>>>Average of the Average Speeds for these 118 finishes33.209<<<
Standard Deviation of the Average Speeds for these 118 finishes3.573
Average of the Performance Ratios for the 118 rated finishes0.8050
Standard Deviation of the Performance Ratios for the 118 rated finishes0.1479
 
 OTT 2005-Mar-25 - 15km (Rockliffe Pkwy) (EvtFactor: 0.6153)

Weather (10:00 EST): Sunny, Temp.: -2°C, Humidity: 55%, Dew Point: -10°C, Wind: NNW 21 gust 30km/h, Pressure: 101.9kPa, Visibility: 32km, WindChill: -8°C.
Weather (11:00 EST): Sunny, Temp.: -2°C, Humidity: 49%, Dew Point: -11°C, Wind: NNW 22 gust 32km/h, Pressure: 101.9kPa, Visibility: 32km, WindChill: -8°C.
Weather (12:00 EST): Sunny, Temp.: -1°C, Humidity: 47%, Dew Point: -11°C, Wind: NW 18 gust 28km/h, Pressure: 102.0, Visibility: 32km, WindChill: -6°C.
12 1 Burge, Craig  2005-Mar-25 22:48 39.474 1/78 VBM 1/23 0.7795
2 Campbell, Colin  2005-Mar-25 23:54 37.657 2/78 VBM 2/23 0.7095
3 St. John, Derrick 2005-Mar-25 23:55 37.631 3/78 SEM 1/8 0.6206
4 Czaban, Stefan  2005-Mar-25 23:57 37.578 4/78 VAM 1/17 0.9129
5 Roy, Patrick 2005-Mar-25 24:05 37.370 5/78 VCM 1/9 0.6334
6 Hellard, Rick 2005-Mar-25 24:12 37.190 6/78 VAM 2/17 1.0000
7 Hinz, Richard 2005-Mar-25 24:14 37.139 7/78 VBM 3/23 0.7049
8 DeKelver, Michael 2005-Mar-25 24:23 36.910 8/78 VAM 3/17 0.7839
9 Polyzos, Aris 2005-Mar-25 24:29 36.760 9/78 VAM 4/17 0.7043
10 Plaunt, Grahame 2005-Mar-25 24:37 36.561 10/78 VAM 5/17 1.0000
11 Corner, Doug  2005-Mar-25 24:47 36.315 11/78 VCM 2/9 0.6245
12 Romkey, Gary 2005-Mar-25 24:50 36.242 12/78 VCM 3/9 0.6460
13 McMillan, Brent 2005-Mar-25 24:51 36.217 13/78 SEM 2/8 0.8896
14 Brazeau, Marc 2005-Mar-25 24:53 36.169 14/78 VAM 6/17 0.7006
15 Hill, Greg  2005-Mar-25 25:09 35.785 15/78 VAM 7/17 0.6074
16 Fulton, Alexander 2005-Mar-25 25:25 35.410 16/78 SEM 3/8 0.6589
17 Beaton, Dale 2005-Mar-25 25:27 35.363 17/78 JUM 1/1 0.5699
18 Wilkinson, Ross 2005-Mar-25 25:27 35.363 17/78 VBM 4/23 0.7301
19 Katz, Joel  2005-Mar-25 25:31 35.271 19/78 VBM 5/23 0.6556
20 Bilenkey, David 2005-Mar-25 25:45 34.951 20/78 VBM 6/23 0.6553
21 Graves, Kevin 2005-Mar-25 25:48 34.884 21/78 SEM 4/8 0.9430
22 Krausbar, Gunther 2005-Mar-25 25:50 34.839 22/78 VBM 7/23 1.0000
23 Spooner, Tricia  2005-Mar-25 26:03 34.549 23/78 VAF 1/6 0.6344
24 Tregunno, Peter  2005-Mar-25 26:07 34.461 24/78 VAM 8/17 1.0000
25 Kirton, Ian 2005-Mar-25 26:12 34.351 25/78 VAM 9/17 0.6562
26 Hall, Scott 2005-Mar-25 26:14 34.307 26/78 VBM 8/23 1.0000
27 DeVidi, Robert  2005-Mar-25 26:23 34.112 27/78 VBM 9/23 0.6785
28 Shapansky, Bradford 2005-Mar-25 26:26 34.048 28/78 VBM 10/23 1.0000
29 de Snayer, Kevin 2005-Mar-25 26:28 34.005 29/78 VAM 10/17 0.7105
30 Durand, Bernard  2005-Mar-25 26:40 33.750 30/78 VBM 11/23 0.5451
31 Janusauskas, Vytas  2005-Mar-25 26:44 33.666 31/78 VCM 4/9 0.7526
32 Gould, Maurice 2005-Mar-25 26:51 33.520 32/78 VBM 12/23 0.8350
33 James, Peter 2005-Mar-25 27:09 33.149 33/78 VCM 5/9 0.6680
34 Shore, Daniel 2005-Mar-25 27:09 33.149 33/78 SEM 5/8 0.6980
35 Musson, Harry 2005-Mar-25 27:10 33.129 35/78 VCM 6/9 0.5977
36 Somogyi, Michel 2005-Mar-25 27:10 33.129 35/78 SEM 6/8 0.5745
37 Clarke, Shawn 2005-Mar-25 27:28 32.767 37/78 SEM 7/8 0.4512
38 Budd, Daniel 2005-Mar-25 27:32 32.688 38/78 VBM 13/23 0.5996
39 Phillips, Ron 2005-Mar-25 27:43 32.471 39/78 VDM 1/2 0.5397
40 Paterson, Helen 2005-Mar-25 27:49 32.355 40/78 SEF 1/3 1.0000
41 Bellinger, Ted 2005-Mar-25 27:57 32.200 41/78 VBM 14/23 1.0000
42 Laurin, Jean 2005-Mar-25 28:13 31.896 42/78 VBM 15/23 0.8409
43 Unrau, David 2005-Mar-25 28:16 31.840 43/78 VAM 11/17 0.6863
44 Gauthier, Lisa 2005-Mar-25 28:19 31.783 44/78 VAF 2/6 0.8057
45 Viljoen, David 2005-Mar-25 28:21 31.746 45/78 VBM 16/23 1.0000
46 Basu, Ben  2005-Mar-25 28:37 31.450 46/78 VAM 12/17 0.4936
47 Burge, Larry  2005-Mar-25 28:40 31.395 47/78 VBM 17/23 0.5053
48 Lehmkuhl, Brian 2005-Mar-25 28:50 31.214 48/78 VBM 18/23 0.6287
49 Kuelz, Ron 2005-Mar-25 29:01 31.017 49/78 VAM 13/17 1.0000
50 Riggs, Jamie 2005-Mar-25 29:16 30.752 50/78 CAM 1/1 0.4875
51 Grant, Peter 2005-Mar-25 29:19 30.699 51/78 VCM 7/9 0.7957
52 Stoneham, Ron 2005-Mar-25 29:21 30.664 52/78 VDM 2/2 0.7141
53 Taylor, Warren 2005-Mar-25 29:40 30.337 53/78 SEM 8/8 0.5530
54 Munden, David 2005-Mar-25 29:46 30.235 54/78 VAM 14/17 0.3856
55 Marquis, Geneviève 2005-Mar-25 30:07 29.884 55/78 VAF 3/6 0.5964
56 Hall, David  2005-Mar-25 30:08 29.867 56/78 VBM 19/23 0.4793
57 Quance, Terry 2005-Mar-25 30:15 29.752 57/78 VCM 8/9 0.5499
58 Grabinski, Eva 2005-Mar-25 30:22 29.638 58/78 VAF 4/6 0.7826
59 St-Amour, Pierre 2005-Mar-25 30:28 29.540 59/78 VBM 20/23 0.4001
60 Bellinger, Lindsey 2005-Mar-25 30:32 29.476 60/78 VBF 1/5 0.7135
61 McInnis, Celia  2005-Mar-25 30:51 29.173 61/78 VBF 2/5 0.5736
62 Murad, Moh 2005-Mar-25 30:57 29.079 62/78 VAM 15/17 1.0000
63 Waugh, Cici 2005-Mar-25 31:29 28.587 63/78 VBF 3/5 1.0000
64 McLaren, Louise  2005-Mar-25 31:32 28.541 64/78 VAF 5/6 0.5969
65 Livingstone, Edward 2005-Mar-25 31:33 28.526 65/78 VAM 16/17 1.0000
66 Scallion, Kate 2005-Mar-25 32:33 27.650 66/78 SEF 2/3 0.5603
67 Peres, Belinda 2005-Mar-25 32:36 27.607 67/78 VAF 6/6 0.5744
68 Scheffler, Heike 2005-Mar-25 32:49 27.425 68/78 VBF 4/5 0.5518
69 Tsouros, Sophia 2005-Mar-25 32:56 27.328 69/78 SEF 3/3 1.0000
70 Wilson, Barbara  2005-Mar-25 33:11 27.122 70/78 VDF 1/1 0.8246
71 Hardy, Robert 2005-Mar-25 33:53 26.562 71/78 VCM 9/9 0.5192
72 Pustovalov, Dmitry 2005-Mar-25 34:11 26.329 72/78 VAM 17/17 0.5350
73 Lacelle, Eva 2005-Mar-25 34:26 26.137 73/78 VBF 5/5 1.0000
74 Tayler, Scott 2005-Mar-25 34:37 25.999 74/78 VBM 21/23 1.0000
75 Hardy, Leah 2005-Mar-25 35:01 25.702 75/78 JUF 1/1 0.6532
76 Andre, Carl 2005-Mar-25 35:11 25.580 76/78 VBM 22/23 1.0000
77 Gould, Stephanie 2005-Mar-25 35:59 25.012 77/78 PWF 1/1 0.5280
78 Twemlow, John 2005-Mar-25 40:33 22.195 78/78 VBM 23/23 0.5999
Average Speed of the above 78 finishes (1170km in 36:57:21):31.659
>>>Average of the Average Speeds for these 78 finishes32.111<<<
Standard Deviation of the Average Speeds for these 78 finishes3.698
Average of the Performance Ratios for the 78 rated finishes0.7232
Standard Deviation of the Performance Ratios for the 78 rated finishes0.1805
 
 OTT 2006-Apr-14 - 15km (Rockliffe Pkwy) (EvtFactor: 0.7419)

Weather (10:00): Mainly Sunny. Temp.: 7°C, Humidity: 65%, Dew Point: 1°C, Wind: ENE 5km/h, Pressure: 101.3kPa, Visibility: 24km.
Weather (11:00): Mainly Sunny. Temp.: 9°C, Humidity: 57%, Dew Point: 1°C, Wind: ENE 17km/h, Pressure: 101.2kPa, Visibility: 24km.
Weather (12:00): Sunny. Temp.: 11°C, Humidity: 55%, Dew Point: 2°C, Wind: ENE 13km/h, Pressure: 101.0kPa, Visibility: 24km.
Weather (13:00): Sunny. Temp.: 13°C, Humidity: 52%, Dew Point: 3°C, Wind: E 13km/h, Pressure: 100.9kPa, Visibility: 24km.
13 1 Boocock, Brooke 2006-Apr-14 20:17 44.371 1/122 SEM 1/12 0.8954
2 Bakker, Osmond 2006-Apr-14 20:24 44.118 2/122 VAM 1/26 0.8667
3 St. John, Derrick 2006-Apr-14 20:32 43.831 3/122 SEM 2/12 0.8477
4 Boisvert, Philippe 2006-Apr-14 21:26 41.991 4/122 JUM 1/3 0.8707
5 Katz, Joel  2006-Apr-14 22:35 39.852 5/122 VCM 1/11 0.8689
6 Lattimore, Andrew 2006-Apr-14 22:35 39.852 5/122 CAM 1/4 0.8041
7 Gee, Jon 2006-Apr-14 22:39 39.735 7/122 VBM 1/26 0.7744
8 North, Christopher 2006-Apr-14 22:39 39.735 7/122 VAM 2/26 1.0000
9 Desbiens, Martin 2006-Apr-14 22:53 39.330 9/122 VAM 3/26 0.8236
10 Campbell, Colin  2006-Apr-14 22:55 39.273 10/122 VBM 2/26 0.8609
11 Martinet, Dominique 2006-Apr-14 22:55 39.273 10/122 VAM 4/26 0.8029
12 DeKelver, Michael 2006-Apr-14 23:00 39.130 12/122 VAM 5/26 0.8111
13 Hill, Greg  2006-Apr-14 23:00 39.130 12/122 VAM 5/26 0.8751
14 Schiemann, Neil 2006-Apr-14 23:19 38.599 14/122 SEM 3/12 0.9046
15 Polyzos, Aris 2006-Apr-14 23:27 38.380 15/122 VAM 7/26 0.8932
16 Kruger, Andrew  2006-Apr-14 23:28 38.352 16/122 VAM 8/26 0.9415
17 Des Brisay, Peter 2006-Apr-14 23:33 38.217 17/122 VBM 3/26 0.8472
18 Brügger, Marcel 2006-Apr-14 23:38 38.082 18/122 VBM 4/26 0.9419
19 Fulton, Alexander 2006-Apr-14 23:38 38.082 18/122 SEM 4/12 1.0000
20 Burge, Craig  2006-Apr-14 23:43 37.948 20/122 VBM 5/26 0.6942
21 Keeping, Stephen 2006-Apr-14 23:43 37.948 20/122 SEM 5/12 0.7891
22 Tregunno, Peter  2006-Apr-14 23:49 37.789 22/122 VAM 9/26 1.0000
23 Demers, François 2006-Apr-14 23:58 37.552 23/122 VAM 10/26 0.8255
24 Bilenkey, David 2006-Apr-14 24:04 37.396 24/122 VBM 6/26 0.7849
25 Lapointe, Marc 2006-Apr-14 24:09 37.267 25/122 VAM 11/26 0.7750
26 Moerman, Bram  2006-Apr-14 24:13 37.164 26/122 VDM 1/7 0.7295
27 Burke, Grant 2006-Apr-14 24:16 37.088 27/122 VAM 12/26 0.8986
28 Brooks, James 2006-Apr-14 24:18 37.037 28/122 VBM 7/26 0.6734
29 Plaice, Keir 2006-Apr-14 24:21 36.961 29/122 JUM 2/3 0.6725
30 Riggs, Jamie 2006-Apr-14 24:21 36.961 29/122 JUM 2/3 0.6820
31 Hess, Detlef 2006-Apr-14 24:22 36.936 31/122 VBM 8/26 0.7495
32 Burdett, Avery  2006-Apr-14 24:29 36.760 32/122 VDM 2/7 0.8147
33 Daniels, Stephen 2006-Apr-14 24:30 36.735 33/122 VAM 13/26 0.9440
34 Shaw, Amanda 2006-Apr-14 24:33 36.660 34/122 VAF 1/5 0.9016
35 Heffernan, Derek 2006-Apr-14 24:45 36.364 35/122 VAM 14/26 1.0000
36 Wilkinson, Ross 2006-Apr-14 24:48 36.290 36/122 VBM 9/26 0.7686
37 MacMillan, Trevor 2006-Apr-14 24:52 36.193 37/122 VAM 15/26 1.0000
38 O'Blenes, Paul 2006-Apr-14 24:54 36.145 38/122 VBM 10/26 0.7378
39 Basu, Ben  2006-Apr-14 24:58 36.048 39/122 VAM 16/26 0.8128
40 Das, Adrian 2006-Apr-14 25:04 35.904 40/122 VAM 17/26 0.7410
41 Gould, Maurice 2006-Apr-14 25:06 35.857 41/122 VBM 11/26 1.0000
42 DeVidi, Robert  2006-Apr-14 25:12 35.714 42/122 VBM 12/26 0.7820
43 Hoisak, Dean 2006-Apr-14 25:13 35.691 43/122 VAM 18/26 1.0000
44 Pazdzior, Ellen  2006-Apr-14 25:14 35.667 44/122 VBF 1/5 0.7426
45 LeMay, Eric 2006-Apr-14 25:16 35.620 45/122 SEM 6/12 1.0000
46 Cornel, Logan  2006-Apr-14 25:20 35.526 46/122 CAM 2/4 0.6475
47 Zappe, Erich 2006-Apr-14 25:20 35.526 46/122 VBM 13/26 0.7022
48 Bryant, Baron 2006-Apr-14 25:21 35.503 48/122 VAM 19/26 0.8258
49 Clarke, Shawn 2006-Apr-14 25:33 35.225 49/122 SEM 7/12 0.5447
50 Czaban, Stefan  2006-Apr-14 25:34 35.202 50/122 VAM 20/26 1.0000
51 Bennett, Michael 2006-Apr-14 25:35 35.179 51/122 VAM 21/26 0.6712
52 Bellinger, Ted 2006-Apr-14 25:40 35.065 52/122 VBM 14/26 1.0000
53 Russell, Susanne 2006-Apr-14 25:40 35.065 52/122 SEF 1/9 0.7056
54 McKay, Allison  2006-Apr-14 25:47 34.906 54/122 VBF 2/5 0.8756
55 Phillips, Ron 2006-Apr-14 25:53 34.771 55/122 VDM 3/7 1.0000
56 Riby, Stephen 2006-Apr-14 25:57 34.682 56/122 VBM 15/26 0.6767
57 Romkey, Courtnay 2006-Apr-14 26:09 34.417 57/122 SEF 2/9 1.0000
58 Sargent, Larry 2006-Apr-14 26:10 34.395 58/122 VBM 16/26 0.7557
59 Janusauskas, Vytas  2006-Apr-14 26:11 34.373 59/122 VCM 2/11 0.8027
60 Somogyi, Michel 2006-Apr-14 26:16 34.264 60/122 VAM 22/26 1.0000
61 Taylor, Warren 2006-Apr-14 26:17 34.242 61/122 SEM 8/12 0.7132
62 Murphy, Ricky 2006-Apr-14 26:18 34.221 62/122 SEM 9/12 1.0000
63 Burge, Larry  2006-Apr-14 26:29 33.984 63/122 VBM 17/26 0.8146
64 Bradley, Kathy  2006-Apr-14 26:37 33.813 64/122 VAF 2/5 0.7798
65 Matassa, Kevin 2006-Apr-14 26:40 33.750 65/122 VBM 18/26 0.9091
66 Provencher, Mélanie 2006-Apr-14 26:43 33.687 66/122 SEF 3/9 0.7680
67 Coney, Sarah 2006-Apr-14 26:44 33.666 67/122 SEF 4/9 0.6721
68 Hicks, Bob  2006-Apr-14 26:46 33.624 68/122 VDM 4/7 0.7684
69 Damen, Trevor 2006-Apr-14 26:51 33.520 69/122 CAM 3/4 0.6733
70 Welsh, James 2006-Apr-14 26:55 33.437 70/122 VBM 19/26 1.0000
71 Konantz, Patricia  2006-Apr-14 27:04 33.251 71/122 VCF 1/7 0.8778
72 Hind, Terry 2006-Apr-14 27:05 33.231 72/122 VCM 3/11 0.7223
73 Laurin, Jean 2006-Apr-14 27:05 33.231 72/122 VBM 20/26 1.0000
74 Martin, Linda 2006-Apr-14 27:05 33.231 72/122 VBF 3/5 0.8024
75 Mellon, Alyssa  2006-Apr-14 27:10 33.129 75/122 SEF 5/9 0.7669
76 Imbrogno, Giorgio  2006-Apr-14 27:11 33.109 76/122 VCM 4/11 0.6783
77 Lehmkuhl, Brian 2006-Apr-14 27:11 33.109 76/122 VBM 21/26 0.6797
78 Higgs, Sharolyn  2006-Apr-14 27:15 33.028 78/122 SEF 6/9 0.7432
79 Bellinger, Lindsey 2006-Apr-14 27:19 32.947 79/122 VBF 4/5 1.0000
80 Vipond, Nicholas 2006-Apr-14 27:19 32.947 79/122 SEM 10/12 1.0000
81 Hall, David  2006-Apr-14 27:21 32.907 81/122 VBM 22/26 0.6590
82 Saint-Arnaud-Watt, Chloe 2006-Apr-14 27:23 32.867 82/122 JUF 1/2 0.7399
83 Saltman, William 2006-Apr-14 27:41 32.511 83/122 VCM 5/11 1.0000
84 Young, Bruce 2006-Apr-14 27:55 32.239 84/122 VCM 6/11 1.0000
85 Gildner, Emily 2006-Apr-14 28:01 32.124 85/122 VCF 2/7 1.0000
86 Grant, Peter 2006-Apr-14 28:02 32.105 86/122 VCM 7/11 1.0000
87 Ray, Brian 2006-Apr-14 28:02 32.105 86/122 VDM 5/7 1.0000
88 Beckett, Doug 2006-Apr-14 28:20 31.765 88/122 VBM 23/26 0.8766
89 Dal-Cin, Matteo  2006-Apr-14 28:24 31.690 89/122 CAM 4/4 0.6010
90 Mulvihill, Peter 2006-Apr-14 28:30 31.579 90/122 VAM 23/26 0.7205
91 Werthman, Ron 2006-Apr-14 28:31 31.560 91/122 VBM 24/26 1.0000
92 James, Peter 2006-Apr-14 28:32 31.542 92/122 VCM 8/11 0.6101
93 Schwartzentruber, Paul 2006-Apr-14 28:38 31.432 93/122 VCM 9/11 1.0000
94 Augaitis, Rasa 2006-Apr-14 28:54 31.142 94/122 SEF 7/9 1.0000
95 Jardine, Karen  2006-Apr-14 29:04 30.963 95/122 VBF 5/5 0.7736
96 Beckett, Stephanie 2006-Apr-14 29:14 30.787 96/122 JUF 2/2 0.8204
97 McInnis, Celia  2006-Apr-14 29:16 30.752 97/122 VCF 3/7 0.7025
98 Marjos, Jordan 2006-Apr-14 29:20 30.682 98/122 VAM 24/26 1.0000
99 Kline, Patrick 2006-Apr-14 29:22 30.647 99/122 VBM 25/26 0.7320
100 Wall, Richard 2006-Apr-14 29:25 30.595 100/122 VCM 10/11 1.0000
101 Hackett, Don 2006-Apr-14 29:32 30.474 101/122 VDM 6/7 1.0000
102 McLaren, Louise  2006-Apr-14 29:44 30.269 102/122 VAF 3/5 0.7241
103 O'Brien, Anna 2006-Apr-14 29:53 30.117 103/122 SEF 8/9 1.0000
104 Ruane, Stephanie 2006-Apr-14 29:57 30.050 104/122 SEF 9/9 1.0000
105 Luitwieler, Nancy  2006-Apr-14 30:01 29.983 105/122 VCF 4/7 1.0000
106 Ajersch, Mary  2006-Apr-14 30:08 29.867 106/122 VDF 1/2 0.6048
107 Clost, Shawn 2006-Apr-14 30:21 29.654 107/122 VAM 25/26 1.0000
108 Burgess, James 2006-Apr-14 30:26 29.573 108/122 VDM 7/7 1.0000
109 Peres, Belinda 2006-Apr-14 30:34 29.444 109/122 VAF 4/5 0.6866
110 Gray, Leona  2006-Apr-14 30:53 29.142 110/122 VCF 5/7 1.0000
111 Steele, Alan 2006-Apr-14 31:04 28.970 111/122 VBM 26/26 0.6044
112 Draper, Mark 2006-Apr-14 31:08 28.908 112/122 VAM 26/26 0.5971
113 Gould, Stephanie 2006-Apr-14 31:22 28.693 113/122 PWF 1/1 0.6593
114 Laplante-Lamarche, Florence 2006-Apr-14 31:53 28.228 114/122 MIF 1/1 0.7018
115 Hammingh, Jane  2006-Apr-14 32:01 28.110 115/122 VCF 6/7 1.0000
116 Scheffler, Heike 2006-Apr-14 32:16 27.893 116/122 VCF 7/7 0.5202
117 Byskov, Karen  2006-Apr-14 32:19 27.849 117/122 VAF 5/5 1.0000
118 Wilson, Barbara  2006-Apr-14 32:25 27.763 118/122 VDF 2/2 1.0000
119 Wright, Geoffrey  2006-Apr-14 32:37 27.593 119/122 VEM 1/1 0.6159
120 Charron, Martin 2006-Apr-14 DNS   120/122 SEM 11/12  
121 Legault, André 2006-Apr-14 DNS   120/122 SEM 11/12  
122 Quance, Terry
(flat tire)
2006-Apr-14 DNF   122/122 VCM 11/11  
Average Speed of the above 119 finishes (1785km in 52:30:03):33.999
>>>Average of the Average Speeds for these 119 finishes34.377<<<
Standard Deviation of the Average Speeds for these 119 finishes3.622
Average of the Performance Ratios for the 119 rated finishes0.8376
Standard Deviation of the Performance Ratios for the 119 rated finishes0.1366
 
 OTT 2007-Apr-06 - 15km (Rockliffe Pkwy) (EvtFactor: 0.5526)

Weather (11:00): Cloudy. Temp.: -5°C, Humidity: 57%, Dew Point: -13°C, Wind: W 24 gust 35km/h, Pressure: 100.4kPa, Vis: 24km, Wind Chill: -12°C.
Weather (12:00): Cloudy. Temp.: -4°C, Humidity: 48%, Dew Point: -13°C, Wind: W 22 gust 33km/h, Pressure: 100.4kPa, Vis: 24km, Wind Chill: -11°C.
Weather (13:00): Cloudy. Temp.: -4°C, Humidity: 48%, Dew Point: -13°C, Wind: W 17km/h, Pressure: 100.5kPa, Vis: 24km, Wind Chill: -10°C.
14 1 St. John, Derrick
(Going so fast that he was missed at the finish line on his bright orange bike(!), this time is a good aproximation - He passed Natasha with 4km to go, gained at least a minute on her, and hence was faster than 26:10-3:00-1:00)
2007-Apr-06 22:00 40.909 1/32 VAM 1/7 0.6734
2 Boisvert, Philippe 2007-Apr-06 24:20 36.986 2/32 SEM 1/8 0.6834
3 Campbell, Colin  2007-Apr-06 25:00 36.000 3/32 VBM 1/4 0.6301
4 Schiemann, Neil 2007-Apr-06 25:03 35.928 4/32 SEM 2/8 0.6743
5 van den Ham, Douglas  2007-Apr-06 25:15 35.644 5/32 SEM 3/8 0.5671
6 DeVidi, Robert  2007-Apr-06 25:54 34.749 6/32 VBM 2/4 0.6942
7 DeKelver, Michael 2007-Apr-06 25:57 34.682 7/32 VAM 2/7 1.0000
8 Martin, David 2007-Apr-06 25:57 34.682 7/32 VAM 2/7 0.5064
9 Elliott, Natasha 2007-Apr-06 26:10 34.395 9/32 SEF 1/2 0.5717
10 Devisscher, Thomas 2007-Apr-06 26:49 33.561 10/32 JUM 1/1 0.4734
11 Wheeler, Mark 2007-Apr-06 27:04 33.251 11/32 SEM 4/8 1.0000
12 Tregunno, Peter  2007-Apr-06 27:07 33.190 12/32 VAM 4/7 1.0000
13 Bennett, Michael 2007-Apr-06 27:40 32.530 13/32 VAM 5/7 0.4606
14 Maheir, Luc 2007-Apr-06 27:48 32.374 14/32 SEM 5/8 1.0000
15 Balfour, Kallum 2007-Apr-06 28:06 32.028 15/32 SEM 6/8 0.6534
16 Coney, Michael 2007-Apr-06 28:16 31.840 16/32 VDM 1/1 0.5649
17 Vipond, Nicholas 2007-Apr-06 28:19 31.783 17/32 SEM 7/8 1.0000
18 Mellon, Alyssa  2007-Apr-06 29:45 30.252 18/32 SEF 2/2 1.0000
19 Lampi, Allison 2007-Apr-06 30:00 30.000 19/32 VAF 1/1 0.6214
20 Marleau, Dianne  2007-Apr-06 30:03 29.950 20/32 VBF 1/2 0.6378
21 Somogyi, Michel 2007-Apr-06 30:24 29.605 21/32 VAM 6/7 1.0000
22 Bergevin, Jean 2007-Apr-06 30:41 29.332 22/32 VBM 3/4 0.5101
23 Laplante-Lamarche, Florence 2007-Apr-06 31:24 28.662 23/32 CAF 1/1 0.5017
24 Grant, Peter 2007-Apr-06 31:30 28.571 24/32 VCM 1/3 1.0000
25 Coney, Ingrid  2007-Apr-06 31:33 28.526 25/32 VCF 1/2 0.5218
26 McLaren, Louise  2007-Apr-06 32:17 27.878 26/32 VBF 2/2 0.5304
27 McInnis, Celia  2007-Apr-06 33:05 27.204 27/32 VCF 2/2 0.4481
28 Sargent, Larry 2007-Apr-06 37:52 23.768 28/32 VCM 2/3 0.2066
29 Janusauskas, Vytas 
(Chain broke just after starting)
2007-Apr-06 DNF   29/32 VCM 3/3  
30 LeBrun, Robert 2007-Apr-06 DNF   29/32 VAM 7/7  
31 Eikenberry, Adam 2007-Apr-06 MISSED   31/32 SEM 8/8  
32 Webber, Bob 2007-Apr-06 MISSED   31/32 VBM 4/4  
Average Speed of the above 28 finishes (420km in 13:15:19):31.685
>>>Average of the Average Speeds for these 28 finishes32.081<<<
Standard Deviation of the Average Speeds for these 28 finishes3.531
Average of the Performance Ratios for the 28 rated finishes0.6832
Standard Deviation of the Performance Ratios for the 28 rated finishes0.2214
 
 OTT 2008-Mar-21 - 15km (Rockliffe Pkwy) (EvtFactor: 0.3851)

Weather (11:00): Sunny. Temp.: -9C, Humidity: 50%, Dew Point: -17C, Wind: WNW 33 gust 46km/h, Pressure: 101.8kPa, Vis: 24km, Wind Chill: -19.
Weather (12:00): Sunny. Temp.: -8C, Humidity: 44%, Dew Point: -18C, Wind: WNW 37 gust 50km/h, Pressure: 101.8kPa, Vis: 24km, Wind Chill: -18.
15 1 Campbell, Colin  2008-Mar-21 26:26 34.048 1/6 VBM 1/2 0.5062
2 Jones, Devon 2008-Mar-21 28:26 31.653 2/6 JUM 1/1 0.5444
3 Lankenau, David 2008-Mar-21 28:40 31.395 3/6 VBM 2/2 0.5381
4 Martin, David 2008-Mar-21 28:56 31.106 4/6 VAM 1/2 0.3420
5 McHugh, Craig 2008-Mar-21 29:01 31.017 5/6 VAM 2/2 0.6032
6 McInnis, Celia  2008-Mar-21 35:40 25.234 6/6 VCF 1/1 0.3072
Average Speed of the above 6 finishes (90km in 02:57:09):30.483
>>>Average of the Average Speeds for these 6 finishes30.742<<<
Standard Deviation of the Average Speeds for these 6 finishes2.669
Average of the Performance Ratios for the 6 rated finishes0.4735
Standard Deviation of the Performance Ratios for the 6 rated finishes0.1096
 
 OTT 2009-Apr-10 - 15km (Rockliffe Pkwy) (EvtFactor: 0.7189)

Weather (11:00): Mostly Cloudy. Temp.: 2.3C, Humidity: 54%, DewPoint: -6.0C, Wind: NW 15km/h, Pressure: 100.56kPa, Visibility: 24.1km.
Weather (12:00): Mostly Cloudy. Temp.: 2.2C, Humidity: 53%, DewPoint: -6.3C, Wind: W 11km/h, Pressure: 100.58kPa, Visibility: 24.1km.
Weather (13:00): Mainly Clear. Temp.: 4.6C, Humidity: 49%, DewPoint: -5.1C, Wind: W 19km/h, Pressure: 100.55kPa, Visibility: 24.1km.
16 1 MacDonald, Warren  2009-Apr-10 19:25 46.352 1/100 VAM 1/22 0.8510
2 Fillion, Aaron  2009-Apr-10 20:15 44.444 2/100 VAM 2/22 0.7441
3 Olson, Chris 2009-Apr-10 20:44 43.408 3/100 VBM 1/19 0.9689
4 van den Ham, Douglas  2009-Apr-10 21:43 41.443 4/100 VAM 3/22 0.7240
5 Hamilton, Peter 2009-Apr-10 21:45 41.379 5/100 VBM 2/19 0.7951
6 Atkins, Ryan 2009-Apr-10 22:03 40.816 6/100 SEM 1/10 1.0000
7 Plaunt, Grahame 2009-Apr-10 22:18 40.359 7/100 VAM 4/22 0.8095
8 Cataford, Alex 2009-Apr-10 22:30 40.000 8/100 CAM 1/2 0.6644
9 Budgell, Glen  2009-Apr-10 23:00 39.130 9/100 VCM 1/16 0.7757
10 Farish, Neil  2009-Apr-10 23:03 39.046 10/100 VCM 2/16 0.7872
11 Gerrard, David  2009-Apr-10 23:07 38.933 11/100 VBM 3/19 0.7750
12 Kruger, Andrew  2009-Apr-10 23:09 38.877 12/100 VAM 5/22 0.8085
13 D'Urbano, Dante 2009-Apr-10 23:11 38.821 13/100 SEM 2/10 1.0000
14 Chedore, Paul 2009-Apr-10 23:15 38.710 14/100 VAM 6/22 0.8093
15 Konov, Sergei 2009-Apr-10 23:22 38.516 15/100 VAM 7/22 0.8460
16 Zuliani, Greg 2009-Apr-10 23:24 38.462 16/100 SEM 3/10 0.6973
17 Campbell, Colin  2009-Apr-10 23:30 38.298 17/100 VBM 4/19 0.6752
18 Roundell, Mark  2009-Apr-10 23:30 38.298 17/100 VCM 3/16 0.7429
19 Morewood, Colin 2009-Apr-10 23:40 38.028 19/100 JUM 1/3 0.7978
20 Sugden, David 2009-Apr-10 23:40 38.028 19/100 VBM 5/19 0.7239
21 Hess, Detlef 2009-Apr-10 23:45 37.895 21/100 VCM 4/16 0.8241
22 Charron, Martin 2009-Apr-10 23:51 37.736 22/100 VAM 8/22 1.0000
23 Burdett, Avery  2009-Apr-10 24:00 37.500 23/100 VEM 1/2 0.8040
24 Knight, Matthew 2009-Apr-10 24:07 37.319 24/100 VAM 9/22 1.0000
25 Muller-Cheng, Evan 2009-Apr-10 24:10 37.241 25/100 SEM 4/10 0.8088
26 Michel, Alexandre  2009-Apr-10 24:15 37.113 26/100 VAM 10/22 0.7603
27 Diotte, Daniel 2009-Apr-10 24:21 36.961 27/100 VBM 6/19 0.9496
28 Forcese, Craig 2009-Apr-10 24:30 36.735 28/100 VBM 7/19 0.9071
29 Kerckhoff, Hermann  2009-Apr-10 24:30 36.735 28/100 VEM 2/2 0.7406
30 Reissner, Leslie 2009-Apr-10 24:35 36.610 30/100 VCM 5/16 0.7873
31 Sargent, Larry 2009-Apr-10 24:38 36.536 31/100 VCM 6/16 0.6931
32 Zollinger, Martin 2009-Apr-10 24:38 36.536 31/100 VAM 11/22 1.0000
33 Lavoie, Marcel  2009-Apr-10 24:46 36.339 33/100 VBM 8/19 1.0000
34 Marleau, Dianne  2009-Apr-10 24:49 36.266 34/100 VBF 1/3 0.7943
35 Armstrong, Brian 2009-Apr-10 24:54 36.145 35/100 VBM 9/19 0.6143
36 Page, Graham 2009-Apr-10 25:06 35.857 36/100 SEM 5/10 0.7678
37 Morris, Steve 2009-Apr-10 25:10 35.762 37/100 VBM 10/19 0.7404
38 Somogyi, Michel 2009-Apr-10 25:10 35.762 37/100 VAM 12/22 0.6696
39 Langevin, Roger  2009-Apr-10 25:11 35.738 39/100 VAM 13/22 0.7503
40 Deavy, Carol  2009-Apr-10 25:30 35.294 40/100 VBF 2/3 0.7843
41 Lankenau, David 2009-Apr-10 25:39 35.088 41/100 VBM 11/19 1.0000
42 Moerman, Bram  2009-Apr-10 25:43 34.997 42/100 VDM 1/6 0.6036
43 Phillips, Ron 2009-Apr-10 25:45 34.951 43/100 VDM 2/6 0.6926
44 Abbott, Jason 2009-Apr-10 25:58 34.660 44/100 SEM 6/10 1.0000
45 Seniuk, Thomas 2009-Apr-10 26:08 34.439 45/100 VBM 12/19 1.0000
46 McHugh, Craig 2009-Apr-10 26:13 34.329 46/100 VBM 13/19 1.0000
47 Blais, Sylvain 2009-Apr-10 26:30 33.962 47/100 VBM 14/19 1.0000
48 Guenette, Jean-Yves 2009-Apr-10 26:30 33.962 47/100 VCM 7/16 0.7459
49 Janusauskas, Vytas  2009-Apr-10 26:35 33.856 49/100 VCM 8/16 0.7436
50 O'Brien, Conor 2009-Apr-10 26:40 33.750 50/100 JUM 2/3 1.0000
51 Labelle, Marc-Antoine 2009-Apr-10 26:52 33.499 51/100 CAM 2/2 0.5306
52 Henry, Mike 2009-Apr-10 27:00 33.333 52/100 VAM 14/22 0.6878
53 Kirton, Ian 2009-Apr-10 27:01 33.313 53/100 VAM 15/22 0.6292
54 Verheyden, Peter  2009-Apr-10 27:05 33.231 54/100 VCM 9/16 1.0000
55 Gagnon, Alexandre  2009-Apr-10 27:16 33.007 55/100 SEM 7/10 0.5846
56 Martin, David 2009-Apr-10 27:22 32.887 56/100 VBM 15/19 1.0000
57 Samborski, Mike 2009-Apr-10 27:27 32.787 57/100 VAM 16/22 0.6089
58 McInnis, Celia  2009-Apr-10 27:39 32.550 58/100 VCF 1/4 0.6985
59 Davy, Andrew 2009-Apr-10 27:42 32.491 59/100 SEM 8/10 0.5564
60 Trafford, Brian 2009-Apr-10 27:42 32.491 59/100 JUM 3/3 0.5253
61 Wolfe, Philip 2009-Apr-10 27:45 32.432 61/100 VBM 16/19 1.0000
62 Lewis, Alex  2009-Apr-10 27:48 32.374 62/100 VCM 10/16 1.0000
63 Olson, Jay 2009-Apr-10 27:51 32.316 63/100 VCM 11/16 1.0000
64 Hanham, Tanya 2009-Apr-10 27:55 32.239 64/100 VAF 1/4 1.0000
65 Manning, Nancy  2009-Apr-10 28:00 32.143 65/100 VCF 2/4 1.0000
66 Burge, Larry  2009-Apr-10 28:02 32.105 66/100 VBM 17/19 0.5620
67 Schattmann, Peter 2009-Apr-10 28:05 32.047 67/100 VBM 18/19 1.0000
68 Rees, Stephanie  2009-Apr-10 28:30 31.579 68/100 VAF 2/4 0.7347
69 Follon, Derek 2009-Apr-10 29:00 31.034 69/100 VDM 3/6 1.0000
70 Gagnon, Jules 2009-Apr-10 29:02 30.999 70/100 VCM 12/16 0.6245
71 Couturier-Lamy, Felix 2009-Apr-10 29:05 30.946 71/100 MIM 1/1 0.5990
72 Gray, Leona  2009-Apr-10 29:09 30.875 72/100 VDF 1/3 0.6283
73 Washer, Simon 2009-Apr-10 29:09 30.875 72/100